<?xml version="1.0" encoding="UTF-8" standalone="no" ?>
<gpx xmlns="http://www.topografix.com/GPX/1/1" xmlns:xsi="http://www.w3.org/2001/XMLSchema-instance" xsi:schemaLocation="http://www.topografix.com/GPX/1/1 http://www.topografix.com/GPX/1/1/gpx.xsd" version="1.1" creator="VisuGPX - https://www.visugpx.com">
  <metadata>
    <name>HEIST 14 JANVIER</name>
    <desc><![CDATA[très belle marche d'hiver à la côte. fédération flamande.
 ]]></desc>
  </metadata>
  <trk>
    <name><![CDATA[HEIST 14-1-2018-:08]]></name>
    <trkseg>
      <trkpt lat="51.338" lon="3.2403">
        <ele>3.5</ele>
        <time>2018-01-14T09:15:48Z</time>
      </trkpt>
      <trkpt lat="51.338" lon="3.2403">
        <ele>3.5</ele>
        <time>2018-01-14T09:15:49Z</time>
      </trkpt>
      <trkpt lat="51.33802" lon="3.24028">
        <ele>3.98</ele>
        <time>2018-01-14T09:15:55Z</time>
      </trkpt>
      <trkpt lat="51.33804" lon="3.24024">
        <ele>2.06</ele>
        <time>2018-01-14T09:15:57Z</time>
      </trkpt>
      <trkpt lat="51.33813" lon="3.23992">
        <ele>1.58</ele>
        <time>2018-01-14T09:16:19Z</time>
      </trkpt>
      <trkpt lat="51.33817" lon="3.23979">
        <ele>1.58</ele>
        <time>2018-01-14T09:16:36Z</time>
      </trkpt>
      <trkpt lat="51.33813" lon="3.23975">
        <ele>1.1</ele>
        <time>2018-01-14T09:16:58Z</time>
      </trkpt>
      <trkpt lat="51.33817" lon="3.23974">
        <ele>0.62</ele>
        <time>2018-01-14T09:17:21Z</time>
      </trkpt>
      <trkpt lat="51.33816" lon="3.23947">
        <ele>1.1</ele>
        <time>2018-01-14T09:17:44Z</time>
      </trkpt>
      <trkpt lat="51.33816" lon="3.23947">
        <ele>1.1</ele>
        <time>2018-01-14T09:17:58Z</time>
      </trkpt>
      <trkpt lat="51.33815" lon="3.23945">
        <ele>1.1</ele>
        <time>2018-01-14T09:18:07Z</time>
      </trkpt>
      <trkpt lat="51.33824" lon="3.2394">
        <ele>1.1</ele>
        <time>2018-01-14T09:18:20Z</time>
      </trkpt>
      <trkpt lat="51.33838" lon="3.23942">
        <ele>1.1</ele>
        <time>2018-01-14T09:18:35Z</time>
      </trkpt>
      <trkpt lat="51.33847" lon="3.23938">
        <ele>2.06</ele>
        <time>2018-01-14T09:18:55Z</time>
      </trkpt>
      <trkpt lat="51.3385" lon="3.23938">
        <ele>2.06</ele>
        <time>2018-01-14T09:19:08Z</time>
      </trkpt>
      <trkpt lat="51.3386" lon="3.2394">
        <ele>1.58</ele>
        <time>2018-01-14T09:19:24Z</time>
      </trkpt>
      <trkpt lat="51.33891" lon="3.23945">
        <ele>2.06</ele>
        <time>2018-01-14T09:19:47Z</time>
      </trkpt>
      <trkpt lat="51.33919" lon="3.23935">
        <ele>2.54</ele>
        <time>2018-01-14T09:20:05Z</time>
      </trkpt>
      <trkpt lat="51.3392" lon="3.23926">
        <ele>2.54</ele>
        <time>2018-01-14T09:20:10Z</time>
      </trkpt>
      <trkpt lat="51.33924" lon="3.23885">
        <ele>3.02</ele>
        <time>2018-01-14T09:20:31Z</time>
      </trkpt>
      <trkpt lat="51.33926" lon="3.23843">
        <ele>3.02</ele>
        <time>2018-01-14T09:20:52Z</time>
      </trkpt>
      <trkpt lat="51.33928" lon="3.2382">
        <ele>3.02</ele>
        <time>2018-01-14T09:21:07Z</time>
      </trkpt>
      <trkpt lat="51.3393" lon="3.23806">
        <ele>3.02</ele>
        <time>2018-01-14T09:21:14Z</time>
      </trkpt>
      <trkpt lat="51.33934" lon="3.2378">
        <ele>3.5</ele>
        <time>2018-01-14T09:21:27Z</time>
      </trkpt>
      <trkpt lat="51.33936" lon="3.23769">
        <ele>3.5</ele>
        <time>2018-01-14T09:21:32Z</time>
      </trkpt>
      <trkpt lat="51.3394" lon="3.23756">
        <ele>3.5</ele>
        <time>2018-01-14T09:21:38Z</time>
      </trkpt>
      <trkpt lat="51.33944" lon="3.23746">
        <ele>3.5</ele>
        <time>2018-01-14T09:21:45Z</time>
      </trkpt>
      <trkpt lat="51.33948" lon="3.23743">
        <ele>3.5</ele>
        <time>2018-01-14T09:21:49Z</time>
      </trkpt>
      <trkpt lat="51.33949" lon="3.23735">
        <ele>3.5</ele>
        <time>2018-01-14T09:21:53Z</time>
      </trkpt>
      <trkpt lat="51.33953" lon="3.23702">
        <ele>3.5</ele>
        <time>2018-01-14T09:22:08Z</time>
      </trkpt>
      <trkpt lat="51.33959" lon="3.23681">
        <ele>3.5</ele>
        <time>2018-01-14T09:22:19Z</time>
      </trkpt>
      <trkpt lat="51.33955" lon="3.23663">
        <ele>3.98</ele>
        <time>2018-01-14T09:22:23Z</time>
      </trkpt>
      <trkpt lat="51.33956" lon="3.23646">
        <ele>3.98</ele>
        <time>2018-01-14T09:22:34Z</time>
      </trkpt>
      <trkpt lat="51.33958" lon="3.23643">
        <ele>3.98</ele>
        <time>2018-01-14T09:22:36Z</time>
      </trkpt>
      <trkpt lat="51.33962" lon="3.23637">
        <ele>3.98</ele>
        <time>2018-01-14T09:22:39Z</time>
      </trkpt>
      <trkpt lat="51.33967" lon="3.23632">
        <ele>3.98</ele>
        <time>2018-01-14T09:22:43Z</time>
      </trkpt>
      <trkpt lat="51.33969" lon="3.2363">
        <ele>3.98</ele>
        <time>2018-01-14T09:22:45Z</time>
      </trkpt>
      <trkpt lat="51.3397" lon="3.23628">
        <ele>3.98</ele>
        <time>2018-01-14T09:22:47Z</time>
      </trkpt>
      <trkpt lat="51.33971" lon="3.23596">
        <ele>3.98</ele>
        <time>2018-01-14T09:23:02Z</time>
      </trkpt>
      <trkpt lat="51.33978" lon="3.2358">
        <ele>3.98</ele>
        <time>2018-01-14T09:23:15Z</time>
      </trkpt>
      <trkpt lat="51.33981" lon="3.2356">
        <ele>3.98</ele>
        <time>2018-01-14T09:23:24Z</time>
      </trkpt>
      <trkpt lat="51.33982" lon="3.23551">
        <ele>3.98</ele>
        <time>2018-01-14T09:23:26Z</time>
      </trkpt>
      <trkpt lat="51.33995" lon="3.23546">
        <ele>3.98</ele>
        <time>2018-01-14T09:23:35Z</time>
      </trkpt>
      <trkpt lat="51.33998" lon="3.23541">
        <ele>3.98</ele>
        <time>2018-01-14T09:23:38Z</time>
      </trkpt>
      <trkpt lat="51.34" lon="3.23528">
        <ele>3.98</ele>
        <time>2018-01-14T09:23:45Z</time>
      </trkpt>
      <trkpt lat="51.34007" lon="3.23509">
        <ele>4.46</ele>
        <time>2018-01-14T09:24:00Z</time>
      </trkpt>
      <trkpt lat="51.34012" lon="3.2351">
        <ele>4.94</ele>
        <time>2018-01-14T09:24:18Z</time>
      </trkpt>
      <trkpt lat="51.34014" lon="3.23519">
        <ele>5.42</ele>
        <time>2018-01-14T09:24:22Z</time>
      </trkpt>
      <trkpt lat="51.34015" lon="3.23527">
        <ele>3.98</ele>
        <time>2018-01-14T09:24:29Z</time>
      </trkpt>
      <trkpt lat="51.34065" lon="3.2351">
        <ele>8.31</ele>
        <time>2018-01-14T09:25:04Z</time>
      </trkpt>
      <trkpt lat="51.34071" lon="3.23496">
        <ele>8.79</ele>
        <time>2018-01-14T09:25:16Z</time>
      </trkpt>
      <trkpt lat="51.34076" lon="3.23487">
        <ele>8.79</ele>
        <time>2018-01-14T09:25:23Z</time>
      </trkpt>
      <trkpt lat="51.34077" lon="3.23482">
        <ele>6.87</ele>
        <time>2018-01-14T09:25:26Z</time>
      </trkpt>
      <trkpt lat="51.34081" lon="3.23494">
        <ele>9.27</ele>
        <time>2018-01-14T09:25:27Z</time>
      </trkpt>
      <trkpt lat="51.34082" lon="3.23497">
        <ele>6.39</ele>
        <time>2018-01-14T09:25:28Z</time>
      </trkpt>
      <trkpt lat="51.34084" lon="3.23499">
        <ele>8.79</ele>
        <time>2018-01-14T09:25:29Z</time>
      </trkpt>
      <trkpt lat="51.34096" lon="3.2352">
        <ele>8.79</ele>
        <time>2018-01-14T09:25:45Z</time>
      </trkpt>
      <trkpt lat="51.34097" lon="3.23519">
        <ele>8.79</ele>
        <time>2018-01-14T09:25:53Z</time>
      </trkpt>
      <trkpt lat="51.34109" lon="3.23529">
        <ele>9.27</ele>
        <time>2018-01-14T09:26:09Z</time>
      </trkpt>
      <trkpt lat="51.34112" lon="3.2353">
        <ele>7.83</ele>
        <time>2018-01-14T09:26:25Z</time>
      </trkpt>
      <trkpt lat="51.34113" lon="3.23531">
        <ele>7.83</ele>
        <time>2018-01-14T09:26:26Z</time>
      </trkpt>
      <trkpt lat="51.34116" lon="3.23539">
        <ele>7.83</ele>
        <time>2018-01-14T09:26:44Z</time>
      </trkpt>
      <trkpt lat="51.34117" lon="3.23541">
        <ele>7.83</ele>
        <time>2018-01-14T09:26:54Z</time>
      </trkpt>
      <trkpt lat="51.34128" lon="3.23567">
        <ele>8.79</ele>
        <time>2018-01-14T09:27:13Z</time>
      </trkpt>
      <trkpt lat="51.34141" lon="3.23594">
        <ele>6.39</ele>
        <time>2018-01-14T09:27:33Z</time>
      </trkpt>
      <trkpt lat="51.34161" lon="3.23623">
        <ele>4.94</ele>
        <time>2018-01-14T09:27:54Z</time>
      </trkpt>
      <trkpt lat="51.34174" lon="3.23658">
        <ele>4.46</ele>
        <time>2018-01-14T09:28:14Z</time>
      </trkpt>
      <trkpt lat="51.34188" lon="3.23692">
        <ele>4.46</ele>
        <time>2018-01-14T09:28:34Z</time>
      </trkpt>
      <trkpt lat="51.342" lon="3.23723">
        <ele>4.94</ele>
        <time>2018-01-14T09:28:53Z</time>
      </trkpt>
      <trkpt lat="51.34211" lon="3.2376">
        <ele>3.98</ele>
        <time>2018-01-14T09:29:13Z</time>
      </trkpt>
      <trkpt lat="51.34226" lon="3.23775">
        <ele>3.98</ele>
        <time>2018-01-14T09:29:28Z</time>
      </trkpt>
      <trkpt lat="51.34241" lon="3.23797">
        <ele>3.98</ele>
        <time>2018-01-14T09:29:45Z</time>
      </trkpt>
      <trkpt lat="51.34255" lon="3.23821">
        <ele>3.98</ele>
        <time>2018-01-14T09:30:02Z</time>
      </trkpt>
      <trkpt lat="51.34267" lon="3.23859">
        <ele>5.42</ele>
        <time>2018-01-14T09:30:24Z</time>
      </trkpt>
      <trkpt lat="51.34279" lon="3.23899">
        <ele>5.42</ele>
        <time>2018-01-14T09:30:47Z</time>
      </trkpt>
      <trkpt lat="51.34291" lon="3.23939">
        <ele>4.46</ele>
        <time>2018-01-14T09:31:10Z</time>
      </trkpt>
      <trkpt lat="51.34303" lon="3.23972">
        <ele>4.46</ele>
        <time>2018-01-14T09:31:30Z</time>
      </trkpt>
      <trkpt lat="51.34311" lon="3.24011">
        <ele>3.98</ele>
        <time>2018-01-14T09:31:52Z</time>
      </trkpt>
      <trkpt lat="51.34318" lon="3.24048">
        <ele>3.98</ele>
        <time>2018-01-14T09:32:12Z</time>
      </trkpt>
      <trkpt lat="51.34325" lon="3.24084">
        <ele>3.98</ele>
        <time>2018-01-14T09:32:32Z</time>
      </trkpt>
      <trkpt lat="51.34333" lon="3.24117">
        <ele>3.5</ele>
        <time>2018-01-14T09:32:51Z</time>
      </trkpt>
      <trkpt lat="51.34344" lon="3.24157">
        <ele>3.98</ele>
        <time>2018-01-14T09:33:14Z</time>
      </trkpt>
      <trkpt lat="51.34352" lon="3.24183">
        <ele>3.5</ele>
        <time>2018-01-14T09:33:30Z</time>
      </trkpt>
      <trkpt lat="51.34361" lon="3.24217">
        <ele>3.98</ele>
        <time>2018-01-14T09:33:49Z</time>
      </trkpt>
      <trkpt lat="51.34372" lon="3.24262">
        <ele>3.98</ele>
        <time>2018-01-14T09:34:13Z</time>
      </trkpt>
      <trkpt lat="51.34379" lon="3.243">
        <ele>4.46</ele>
        <time>2018-01-14T09:34:33Z</time>
      </trkpt>
      <trkpt lat="51.34384" lon="3.24344">
        <ele>4.46</ele>
        <time>2018-01-14T09:34:55Z</time>
      </trkpt>
      <trkpt lat="51.34389" lon="3.24386">
        <ele>4.46</ele>
        <time>2018-01-14T09:35:17Z</time>
      </trkpt>
      <trkpt lat="51.34393" lon="3.24424">
        <ele>4.46</ele>
        <time>2018-01-14T09:35:37Z</time>
      </trkpt>
      <trkpt lat="51.34396" lon="3.24463">
        <ele>4.46</ele>
        <time>2018-01-14T09:35:58Z</time>
      </trkpt>
      <trkpt lat="51.34401" lon="3.24506">
        <ele>3.5</ele>
        <time>2018-01-14T09:36:20Z</time>
      </trkpt>
      <trkpt lat="51.34406" lon="3.24547">
        <ele>3.02</ele>
        <time>2018-01-14T09:36:42Z</time>
      </trkpt>
      <trkpt lat="51.3441" lon="3.24588">
        <ele>3.02</ele>
        <time>2018-01-14T09:37:03Z</time>
      </trkpt>
      <trkpt lat="51.34412" lon="3.24636">
        <ele>3.02</ele>
        <time>2018-01-14T09:37:27Z</time>
      </trkpt>
      <trkpt lat="51.34415" lon="3.24678">
        <ele>3.02</ele>
        <time>2018-01-14T09:37:49Z</time>
      </trkpt>
      <trkpt lat="51.34418" lon="3.2472">
        <ele>3.02</ele>
        <time>2018-01-14T09:38:10Z</time>
      </trkpt>
      <trkpt lat="51.34421" lon="3.24759">
        <ele>3.02</ele>
        <time>2018-01-14T09:38:30Z</time>
      </trkpt>
      <trkpt lat="51.34424" lon="3.24797">
        <ele>3.02</ele>
        <time>2018-01-14T09:38:49Z</time>
      </trkpt>
      <trkpt lat="51.34426" lon="3.24838">
        <ele>3.02</ele>
        <time>2018-01-14T09:39:10Z</time>
      </trkpt>
      <trkpt lat="51.34427" lon="3.24863">
        <ele>2.54</ele>
        <time>2018-01-14T09:39:22Z</time>
      </trkpt>
      <trkpt lat="51.34431" lon="3.24904">
        <ele>2.54</ele>
        <time>2018-01-14T09:39:43Z</time>
      </trkpt>
      <trkpt lat="51.34435" lon="3.24941">
        <ele>2.54</ele>
        <time>2018-01-14T09:40:02Z</time>
      </trkpt>
      <trkpt lat="51.34439" lon="3.24983">
        <ele>2.54</ele>
        <time>2018-01-14T09:40:24Z</time>
      </trkpt>
      <trkpt lat="51.34442" lon="3.25017">
        <ele>2.06</ele>
        <time>2018-01-14T09:40:42Z</time>
      </trkpt>
      <trkpt lat="51.34446" lon="3.25055">
        <ele>2.06</ele>
        <time>2018-01-14T09:41:02Z</time>
      </trkpt>
      <trkpt lat="51.34451" lon="3.25091">
        <ele>2.06</ele>
        <time>2018-01-14T09:41:21Z</time>
      </trkpt>
      <trkpt lat="51.34457" lon="3.25129">
        <ele>2.06</ele>
        <time>2018-01-14T09:41:41Z</time>
      </trkpt>
      <trkpt lat="51.34464" lon="3.25166">
        <ele>2.06</ele>
        <time>2018-01-14T09:42:01Z</time>
      </trkpt>
      <trkpt lat="51.34471" lon="3.25201">
        <ele>2.06</ele>
        <time>2018-01-14T09:42:20Z</time>
      </trkpt>
      <trkpt lat="51.34478" lon="3.25241">
        <ele>1.58</ele>
        <time>2018-01-14T09:42:41Z</time>
      </trkpt>
      <trkpt lat="51.34485" lon="3.2528">
        <ele>1.58</ele>
        <time>2018-01-14T09:43:02Z</time>
      </trkpt>
      <trkpt lat="51.34492" lon="3.25322">
        <ele>1.58</ele>
        <time>2018-01-14T09:43:23Z</time>
      </trkpt>
      <trkpt lat="51.34499" lon="3.25358">
        <ele>1.58</ele>
        <time>2018-01-14T09:43:43Z</time>
      </trkpt>
      <trkpt lat="51.34505" lon="3.25393">
        <ele>1.58</ele>
        <time>2018-01-14T09:44:01Z</time>
      </trkpt>
      <trkpt lat="51.34512" lon="3.25433">
        <ele>1.58</ele>
        <time>2018-01-14T09:44:22Z</time>
      </trkpt>
      <trkpt lat="51.34519" lon="3.25472">
        <ele>1.58</ele>
        <time>2018-01-14T09:44:43Z</time>
      </trkpt>
      <trkpt lat="51.34523" lon="3.25513">
        <ele>1.58</ele>
        <time>2018-01-14T09:45:04Z</time>
      </trkpt>
      <trkpt lat="51.34525" lon="3.2552">
        <ele>3.02</ele>
        <time>2018-01-14T09:45:10Z</time>
      </trkpt>
      <trkpt lat="51.34536" lon="3.25543">
        <ele>2.06</ele>
        <time>2018-01-14T09:45:26Z</time>
      </trkpt>
      <trkpt lat="51.3455" lon="3.25571">
        <ele>1.58</ele>
        <time>2018-01-14T09:45:45Z</time>
      </trkpt>
      <trkpt lat="51.34558" lon="3.25601">
        <ele>1.58</ele>
        <time>2018-01-14T09:46:01Z</time>
      </trkpt>
      <trkpt lat="51.34564" lon="3.25636">
        <ele>1.58</ele>
        <time>2018-01-14T09:46:20Z</time>
      </trkpt>
      <trkpt lat="51.3457" lon="3.25671">
        <ele>1.1</ele>
        <time>2018-01-14T09:46:38Z</time>
      </trkpt>
      <trkpt lat="51.34577" lon="3.25705">
        <ele>1.1</ele>
        <time>2018-01-14T09:46:57Z</time>
      </trkpt>
      <trkpt lat="51.34587" lon="3.25747">
        <ele>1.1</ele>
        <time>2018-01-14T09:47:20Z</time>
      </trkpt>
      <trkpt lat="51.34595" lon="3.2579">
        <ele>1.1</ele>
        <time>2018-01-14T09:47:43Z</time>
      </trkpt>
      <trkpt lat="51.34604" lon="3.2583">
        <ele>1.1</ele>
        <time>2018-01-14T09:48:05Z</time>
      </trkpt>
      <trkpt lat="51.34613" lon="3.25868">
        <ele>1.1</ele>
        <time>2018-01-14T09:48:27Z</time>
      </trkpt>
      <trkpt lat="51.34619" lon="3.25903">
        <ele>0.62</ele>
        <time>2018-01-14T09:48:46Z</time>
      </trkpt>
      <trkpt lat="51.34628" lon="3.25934">
        <ele>0.62</ele>
        <time>2018-01-14T09:49:03Z</time>
      </trkpt>
      <trkpt lat="51.34635" lon="3.25968">
        <ele>0.62</ele>
        <time>2018-01-14T09:49:22Z</time>
      </trkpt>
      <trkpt lat="51.34642" lon="3.26">
        <ele>0.62</ele>
        <time>2018-01-14T09:49:40Z</time>
      </trkpt>
      <trkpt lat="51.34649" lon="3.26035">
        <ele>0.62</ele>
        <time>2018-01-14T09:49:59Z</time>
      </trkpt>
      <trkpt lat="51.34657" lon="3.26072">
        <ele>0.62</ele>
        <time>2018-01-14T09:50:20Z</time>
      </trkpt>
      <trkpt lat="51.34661" lon="3.26101">
        <ele>0.62</ele>
        <time>2018-01-14T09:50:36Z</time>
      </trkpt>
      <trkpt lat="51.34663" lon="3.2613">
        <ele>1.58</ele>
        <time>2018-01-14T09:50:53Z</time>
      </trkpt>
      <trkpt lat="51.34665" lon="3.26154">
        <ele>0.14</ele>
        <time>2018-01-14T09:51:07Z</time>
      </trkpt>
      <trkpt lat="51.34669" lon="3.26174">
        <ele>1.1</ele>
        <time>2018-01-14T09:51:19Z</time>
      </trkpt>
      <trkpt lat="51.34674" lon="3.26206">
        <ele>1.1</ele>
        <time>2018-01-14T09:51:37Z</time>
      </trkpt>
      <trkpt lat="51.34681" lon="3.2624">
        <ele>1.1</ele>
        <time>2018-01-14T09:51:56Z</time>
      </trkpt>
      <trkpt lat="51.34688" lon="3.26267">
        <ele>1.1</ele>
        <time>2018-01-14T09:52:12Z</time>
      </trkpt>
      <trkpt lat="51.34692" lon="3.26293">
        <ele>1.1</ele>
        <time>2018-01-14T09:52:27Z</time>
      </trkpt>
      <trkpt lat="51.34698" lon="3.26323">
        <ele>1.1</ele>
        <time>2018-01-14T09:52:44Z</time>
      </trkpt>
      <trkpt lat="51.34702" lon="3.26354">
        <ele>1.1</ele>
        <time>2018-01-14T09:53:01Z</time>
      </trkpt>
      <trkpt lat="51.34708" lon="3.26387">
        <ele>1.1</ele>
        <time>2018-01-14T09:53:20Z</time>
      </trkpt>
      <trkpt lat="51.34713" lon="3.26415">
        <ele>1.1</ele>
        <time>2018-01-14T09:53:37Z</time>
      </trkpt>
      <trkpt lat="51.34708" lon="3.26439">
        <ele>1.1</ele>
        <time>2018-01-14T09:53:51Z</time>
      </trkpt>
      <trkpt lat="51.34706" lon="3.26442">
        <ele>1.1</ele>
        <time>2018-01-14T09:53:54Z</time>
      </trkpt>
      <trkpt lat="51.34699" lon="3.26467">
        <ele>2.06</ele>
        <time>2018-01-14T09:54:10Z</time>
      </trkpt>
      <trkpt lat="51.34698" lon="3.26492">
        <ele>2.54</ele>
        <time>2018-01-14T09:54:24Z</time>
      </trkpt>
      <trkpt lat="51.34691" lon="3.2651">
        <ele>3.02</ele>
        <time>2018-01-14T09:54:40Z</time>
      </trkpt>
      <trkpt lat="51.3469" lon="3.2651">
        <ele>-2.75</ele>
        <time>2018-01-14T09:54:41Z</time>
      </trkpt>
      <trkpt lat="51.3469" lon="3.26511">
        <ele>5.91</ele>
        <time>2018-01-14T09:54:42Z</time>
      </trkpt>
      <trkpt lat="51.34678" lon="3.26512">
        <ele>4.94</ele>
        <time>2018-01-14T09:54:57Z</time>
      </trkpt>
      <trkpt lat="51.34677" lon="3.26512">
        <ele>4.94</ele>
        <time>2018-01-14T09:54:58Z</time>
      </trkpt>
      <trkpt lat="51.3466" lon="3.2652">
        <ele>5.42</ele>
        <time>2018-01-14T09:55:15Z</time>
      </trkpt>
      <trkpt lat="51.34645" lon="3.26523">
        <ele>6.39</ele>
        <time>2018-01-14T09:55:31Z</time>
      </trkpt>
      <trkpt lat="51.34628" lon="3.26527">
        <ele>6.87</ele>
        <time>2018-01-14T09:55:48Z</time>
      </trkpt>
      <trkpt lat="51.34615" lon="3.2653">
        <ele>6.87</ele>
        <time>2018-01-14T09:56:02Z</time>
      </trkpt>
      <trkpt lat="51.34608" lon="3.26526">
        <ele>6.87</ele>
        <time>2018-01-14T09:56:10Z</time>
      </trkpt>
      <trkpt lat="51.34595" lon="3.26528">
        <ele>6.39</ele>
        <time>2018-01-14T09:56:24Z</time>
      </trkpt>
      <trkpt lat="51.34584" lon="3.26535">
        <ele>6.87</ele>
        <time>2018-01-14T09:56:39Z</time>
      </trkpt>
      <trkpt lat="51.34574" lon="3.26547">
        <ele>6.87</ele>
        <time>2018-01-14T09:56:54Z</time>
      </trkpt>
      <trkpt lat="51.34571" lon="3.26562">
        <ele>6.87</ele>
        <time>2018-01-14T09:57:12Z</time>
      </trkpt>
      <trkpt lat="51.34572" lon="3.26587">
        <ele>7.83</ele>
        <time>2018-01-14T09:57:29Z</time>
      </trkpt>
      <trkpt lat="51.34574" lon="3.26608">
        <ele>7.83</ele>
        <time>2018-01-14T09:57:42Z</time>
      </trkpt>
      <trkpt lat="51.34577" lon="3.26619">
        <ele>2.54</ele>
        <time>2018-01-14T09:57:51Z</time>
      </trkpt>
      <trkpt lat="51.34577" lon="3.26621">
        <ele>8.79</ele>
        <time>2018-01-14T09:57:52Z</time>
      </trkpt>
      <trkpt lat="51.34577" lon="3.26622">
        <ele>6.87</ele>
        <time>2018-01-14T09:57:53Z</time>
      </trkpt>
      <trkpt lat="51.34578" lon="3.26629">
        <ele>6.87</ele>
        <time>2018-01-14T09:57:57Z</time>
      </trkpt>
      <trkpt lat="51.34578" lon="3.26635">
        <ele>8.31</ele>
        <time>2018-01-14T09:58:00Z</time>
      </trkpt>
      <trkpt lat="51.34581" lon="3.26642">
        <ele>6.87</ele>
        <time>2018-01-14T09:58:05Z</time>
      </trkpt>
      <trkpt lat="51.34581" lon="3.26645">
        <ele>9.75</ele>
        <time>2018-01-14T09:58:07Z</time>
      </trkpt>
      <trkpt lat="51.34585" lon="3.26652">
        <ele>7.83</ele>
        <time>2018-01-14T09:58:12Z</time>
      </trkpt>
      <trkpt lat="51.34587" lon="3.26664">
        <ele>7.83</ele>
        <time>2018-01-14T09:58:19Z</time>
      </trkpt>
      <trkpt lat="51.34589" lon="3.26683">
        <ele>7.35</ele>
        <time>2018-01-14T09:58:30Z</time>
      </trkpt>
      <trkpt lat="51.34588" lon="3.26692">
        <ele>7.35</ele>
        <time>2018-01-14T09:58:36Z</time>
      </trkpt>
      <trkpt lat="51.34598" lon="3.26725">
        <ele>6.87</ele>
        <time>2018-01-14T09:58:51Z</time>
      </trkpt>
      <trkpt lat="51.34603" lon="3.26755">
        <ele>6.87</ele>
        <time>2018-01-14T09:59:07Z</time>
      </trkpt>
      <trkpt lat="51.34608" lon="3.26785">
        <ele>6.87</ele>
        <time>2018-01-14T09:59:22Z</time>
      </trkpt>
      <trkpt lat="51.34612" lon="3.26807">
        <ele>6.87</ele>
        <time>2018-01-14T09:59:33Z</time>
      </trkpt>
      <trkpt lat="51.34612" lon="3.2683">
        <ele>6.87</ele>
        <time>2018-01-14T09:59:43Z</time>
      </trkpt>
      <trkpt lat="51.34609" lon="3.26849">
        <ele>6.87</ele>
        <time>2018-01-14T09:59:55Z</time>
      </trkpt>
      <trkpt lat="51.34609" lon="3.26861">
        <ele>9.27</ele>
        <time>2018-01-14T10:00:01Z</time>
      </trkpt>
      <trkpt lat="51.34609" lon="3.26865">
        <ele>7.83</ele>
        <time>2018-01-14T10:00:03Z</time>
      </trkpt>
      <trkpt lat="51.34625" lon="3.26894">
        <ele>6.39</ele>
        <time>2018-01-14T10:00:18Z</time>
      </trkpt>
      <trkpt lat="51.3464" lon="3.26922">
        <ele>5.42</ele>
        <time>2018-01-14T10:00:34Z</time>
      </trkpt>
      <trkpt lat="51.34654" lon="3.2695">
        <ele>6.39</ele>
        <time>2018-01-14T10:00:53Z</time>
      </trkpt>
      <trkpt lat="51.34656" lon="3.26955">
        <ele>6.39</ele>
        <time>2018-01-14T10:00:57Z</time>
      </trkpt>
      <trkpt lat="51.34659" lon="3.26969">
        <ele>6.39</ele>
        <time>2018-01-14T10:01:05Z</time>
      </trkpt>
      <trkpt lat="51.34659" lon="3.26973">
        <ele>6.87</ele>
        <time>2018-01-14T10:01:07Z</time>
      </trkpt>
      <trkpt lat="51.34667" lon="3.26995">
        <ele>6.87</ele>
        <time>2018-01-14T10:01:18Z</time>
      </trkpt>
      <trkpt lat="51.34671" lon="3.27006">
        <ele>6.87</ele>
        <time>2018-01-14T10:01:24Z</time>
      </trkpt>
      <trkpt lat="51.34677" lon="3.27029">
        <ele>6.87</ele>
        <time>2018-01-14T10:01:36Z</time>
      </trkpt>
      <trkpt lat="51.34684" lon="3.27056">
        <ele>7.35</ele>
        <time>2018-01-14T10:01:51Z</time>
      </trkpt>
      <trkpt lat="51.34686" lon="3.27062">
        <ele>7.35</ele>
        <time>2018-01-14T10:01:54Z</time>
      </trkpt>
      <trkpt lat="51.34689" lon="3.27094">
        <ele>6.87</ele>
        <time>2018-01-14T10:02:09Z</time>
      </trkpt>
      <trkpt lat="51.34692" lon="3.27124">
        <ele>5.91</ele>
        <time>2018-01-14T10:02:24Z</time>
      </trkpt>
      <trkpt lat="51.34698" lon="3.27155">
        <ele>5.42</ele>
        <time>2018-01-14T10:02:40Z</time>
      </trkpt>
      <trkpt lat="51.34713" lon="3.27171">
        <ele>6.39</ele>
        <time>2018-01-14T10:02:52Z</time>
      </trkpt>
      <trkpt lat="51.3472" lon="3.27189">
        <ele>6.39</ele>
        <time>2018-01-14T10:03:06Z</time>
      </trkpt>
      <trkpt lat="51.3472" lon="3.27193">
        <ele>6.39</ele>
        <time>2018-01-14T10:03:08Z</time>
      </trkpt>
      <trkpt lat="51.3472" lon="3.27207">
        <ele>6.87</ele>
        <time>2018-01-14T10:03:19Z</time>
      </trkpt>
      <trkpt lat="51.34717" lon="3.27213">
        <ele>7.35</ele>
        <time>2018-01-14T10:03:24Z</time>
      </trkpt>
      <trkpt lat="51.34714" lon="3.27224">
        <ele>7.83</ele>
        <time>2018-01-14T10:03:33Z</time>
      </trkpt>
      <trkpt lat="51.34712" lon="3.2723">
        <ele>6.39</ele>
        <time>2018-01-14T10:03:38Z</time>
      </trkpt>
      <trkpt lat="51.34709" lon="3.27243">
        <ele>6.39</ele>
        <time>2018-01-14T10:03:47Z</time>
      </trkpt>
      <trkpt lat="51.347" lon="3.27263">
        <ele>6.39</ele>
        <time>2018-01-14T10:04:02Z</time>
      </trkpt>
      <trkpt lat="51.3469" lon="3.27295">
        <ele>5.91</ele>
        <time>2018-01-14T10:04:17Z</time>
      </trkpt>
      <trkpt lat="51.34675" lon="3.27315">
        <ele>5.91</ele>
        <time>2018-01-14T10:04:30Z</time>
      </trkpt>
      <trkpt lat="51.34669" lon="3.27327">
        <ele>5.91</ele>
        <time>2018-01-14T10:04:38Z</time>
      </trkpt>
      <trkpt lat="51.34667" lon="3.27334">
        <ele>6.39</ele>
        <time>2018-01-14T10:04:43Z</time>
      </trkpt>
      <trkpt lat="51.34665" lon="3.27337">
        <ele>6.39</ele>
        <time>2018-01-14T10:04:45Z</time>
      </trkpt>
      <trkpt lat="51.34652" lon="3.27363">
        <ele>5.91</ele>
        <time>2018-01-14T10:05:02Z</time>
      </trkpt>
      <trkpt lat="51.34643" lon="3.27375">
        <ele>5.91</ele>
        <time>2018-01-14T10:05:12Z</time>
      </trkpt>
      <trkpt lat="51.34639" lon="3.2738">
        <ele>4.94</ele>
        <time>2018-01-14T10:05:16Z</time>
      </trkpt>
      <trkpt lat="51.34629" lon="3.27379">
        <ele>4.94</ele>
        <time>2018-01-14T10:05:22Z</time>
      </trkpt>
      <trkpt lat="51.34622" lon="3.27379">
        <ele>4.94</ele>
        <time>2018-01-14T10:05:27Z</time>
      </trkpt>
      <trkpt lat="51.3462" lon="3.2738">
        <ele>4.94</ele>
        <time>2018-01-14T10:05:29Z</time>
      </trkpt>
      <trkpt lat="51.34606" lon="3.27396">
        <ele>4.94</ele>
        <time>2018-01-14T10:05:42Z</time>
      </trkpt>
      <trkpt lat="51.34584" lon="3.27412">
        <ele>4.46</ele>
        <time>2018-01-14T10:06:00Z</time>
      </trkpt>
      <trkpt lat="51.34566" lon="3.27423">
        <ele>4.46</ele>
        <time>2018-01-14T10:06:16Z</time>
      </trkpt>
      <trkpt lat="51.34561" lon="3.27413">
        <ele>3.98</ele>
        <time>2018-01-14T10:06:26Z</time>
      </trkpt>
      <trkpt lat="51.34553" lon="3.27396">
        <ele>3.98</ele>
        <time>2018-01-14T10:06:39Z</time>
      </trkpt>
      <trkpt lat="51.34549" lon="3.27394">
        <ele>3.98</ele>
        <time>2018-01-14T10:06:43Z</time>
      </trkpt>
      <trkpt lat="51.34527" lon="3.27382">
        <ele>3.98</ele>
        <time>2018-01-14T10:06:58Z</time>
      </trkpt>
      <trkpt lat="51.34506" lon="3.27377">
        <ele>3.98</ele>
        <time>2018-01-14T10:07:15Z</time>
      </trkpt>
      <trkpt lat="51.34489" lon="3.27381">
        <ele>3.98</ele>
        <time>2018-01-14T10:07:28Z</time>
      </trkpt>
      <trkpt lat="51.3447" lon="3.27391">
        <ele>3.98</ele>
        <time>2018-01-14T10:07:43Z</time>
      </trkpt>
      <trkpt lat="51.34452" lon="3.27397">
        <ele>3.5</ele>
        <time>2018-01-14T10:07:59Z</time>
      </trkpt>
      <trkpt lat="51.34433" lon="3.27393">
        <ele>3.5</ele>
        <time>2018-01-14T10:08:14Z</time>
      </trkpt>
      <trkpt lat="51.34418" lon="3.2738">
        <ele>3.5</ele>
        <time>2018-01-14T10:08:30Z</time>
      </trkpt>
      <trkpt lat="51.3441" lon="3.27368">
        <ele>3.02</ele>
        <time>2018-01-14T10:08:39Z</time>
      </trkpt>
      <trkpt lat="51.34418" lon="3.27338">
        <ele>2.54</ele>
        <time>2018-01-14T10:08:54Z</time>
      </trkpt>
      <trkpt lat="51.34426" lon="3.2731">
        <ele>2.06</ele>
        <time>2018-01-14T10:09:09Z</time>
      </trkpt>
      <trkpt lat="51.34427" lon="3.27296">
        <ele>1.58</ele>
        <time>2018-01-14T10:09:16Z</time>
      </trkpt>
      <trkpt lat="51.34427" lon="3.27265">
        <ele>0.62</ele>
        <time>2018-01-14T10:09:30Z</time>
      </trkpt>
      <trkpt lat="51.3443" lon="3.27238">
        <ele>2.06</ele>
        <time>2018-01-14T10:09:44Z</time>
      </trkpt>
      <trkpt lat="51.34432" lon="3.27228">
        <ele>2.06</ele>
        <time>2018-01-14T10:09:48Z</time>
      </trkpt>
      <trkpt lat="51.34427" lon="3.27199">
        <ele>1.58</ele>
        <time>2018-01-14T10:10:03Z</time>
      </trkpt>
      <trkpt lat="51.34427" lon="3.27174">
        <ele>0.62</ele>
        <time>2018-01-14T10:10:15Z</time>
      </trkpt>
      <trkpt lat="51.34428" lon="3.27159">
        <ele>0.62</ele>
        <time>2018-01-14T10:10:21Z</time>
      </trkpt>
      <trkpt lat="51.3443" lon="3.2713">
        <ele>0.62</ele>
        <time>2018-01-14T10:10:36Z</time>
      </trkpt>
      <trkpt lat="51.34425" lon="3.27101">
        <ele>0.62</ele>
        <time>2018-01-14T10:10:51Z</time>
      </trkpt>
      <trkpt lat="51.34425" lon="3.27098">
        <ele>2.06</ele>
        <time>2018-01-14T10:10:53Z</time>
      </trkpt>
      <trkpt lat="51.34424" lon="3.27088">
        <ele>3.02</ele>
        <time>2018-01-14T10:10:59Z</time>
      </trkpt>
      <trkpt lat="51.3442" lon="3.27075">
        <ele>3.98</ele>
        <time>2018-01-14T10:11:05Z</time>
      </trkpt>
      <trkpt lat="51.34417" lon="3.27074">
        <ele>4.46</ele>
        <time>2018-01-14T10:11:09Z</time>
      </trkpt>
      <trkpt lat="51.34414" lon="3.27074">
        <ele>4.46</ele>
        <time>2018-01-14T10:11:12Z</time>
      </trkpt>
      <trkpt lat="51.34402" lon="3.27076">
        <ele>3.02</ele>
        <time>2018-01-14T10:11:24Z</time>
      </trkpt>
      <trkpt lat="51.344" lon="3.27075">
        <ele>2.54</ele>
        <time>2018-01-14T10:11:26Z</time>
      </trkpt>
      <trkpt lat="51.3438" lon="3.27063">
        <ele>2.06</ele>
        <time>2018-01-14T10:11:42Z</time>
      </trkpt>
      <trkpt lat="51.34365" lon="3.2705">
        <ele>3.02</ele>
        <time>2018-01-14T10:11:55Z</time>
      </trkpt>
      <trkpt lat="51.34359" lon="3.27042">
        <ele>1.58</ele>
        <time>2018-01-14T10:12:01Z</time>
      </trkpt>
      <trkpt lat="51.34354" lon="3.27019">
        <ele>1.58</ele>
        <time>2018-01-14T10:12:13Z</time>
      </trkpt>
      <trkpt lat="51.34353" lon="3.27012">
        <ele>1.58</ele>
        <time>2018-01-14T10:12:17Z</time>
      </trkpt>
      <trkpt lat="51.34367" lon="3.2698">
        <ele>1.58</ele>
        <time>2018-01-14T10:12:36Z</time>
      </trkpt>
      <trkpt lat="51.34372" lon="3.26951">
        <ele>1.58</ele>
        <time>2018-01-14T10:12:51Z</time>
      </trkpt>
      <trkpt lat="51.34374" lon="3.26949">
        <ele>1.58</ele>
        <time>2018-01-14T10:12:53Z</time>
      </trkpt>
      <trkpt lat="51.34379" lon="3.26944">
        <ele>3.02</ele>
        <time>2018-01-14T10:12:58Z</time>
      </trkpt>
      <trkpt lat="51.34387" lon="3.26937">
        <ele>3.02</ele>
        <time>2018-01-14T10:13:05Z</time>
      </trkpt>
      <trkpt lat="51.34384" lon="3.26923">
        <ele>3.02</ele>
        <time>2018-01-14T10:13:13Z</time>
      </trkpt>
      <trkpt lat="51.34359" lon="3.26919">
        <ele>3.02</ele>
        <time>2018-01-14T10:13:32Z</time>
      </trkpt>
      <trkpt lat="51.34335" lon="3.26915">
        <ele>3.02</ele>
        <time>2018-01-14T10:13:51Z</time>
      </trkpt>
      <trkpt lat="51.3432" lon="3.26891">
        <ele>3.02</ele>
        <time>2018-01-14T10:14:07Z</time>
      </trkpt>
      <trkpt lat="51.34312" lon="3.26859">
        <ele>1.1</ele>
        <time>2018-01-14T10:14:24Z</time>
      </trkpt>
      <trkpt lat="51.34311" lon="3.26828">
        <ele>1.1</ele>
        <time>2018-01-14T10:14:39Z</time>
      </trkpt>
      <trkpt lat="51.34322" lon="3.26808">
        <ele>1.1</ele>
        <time>2018-01-14T10:14:53Z</time>
      </trkpt>
      <trkpt lat="51.34321" lon="3.268">
        <ele>1.1</ele>
        <time>2018-01-14T10:14:58Z</time>
      </trkpt>
      <trkpt lat="51.34299" lon="3.26794">
        <ele>1.1</ele>
        <time>2018-01-14T10:15:15Z</time>
      </trkpt>
      <trkpt lat="51.34279" lon="3.26784">
        <ele>1.1</ele>
        <time>2018-01-14T10:15:32Z</time>
      </trkpt>
      <trkpt lat="51.34263" lon="3.26776">
        <ele>1.1</ele>
        <time>2018-01-14T10:15:46Z</time>
      </trkpt>
      <trkpt lat="51.34237" lon="3.26782">
        <ele>2.06</ele>
        <time>2018-01-14T10:16:04Z</time>
      </trkpt>
      <trkpt lat="51.3422" lon="3.26767">
        <ele>2.06</ele>
        <time>2018-01-14T10:16:20Z</time>
      </trkpt>
      <trkpt lat="51.34207" lon="3.26775">
        <ele>2.54</ele>
        <time>2018-01-14T10:16:34Z</time>
      </trkpt>
      <trkpt lat="51.34198" lon="3.26777">
        <ele>2.54</ele>
        <time>2018-01-14T10:16:42Z</time>
      </trkpt>
      <trkpt lat="51.34182" lon="3.26771">
        <ele>1.1</ele>
        <time>2018-01-14T10:16:57Z</time>
      </trkpt>
      <trkpt lat="51.34178" lon="3.26767">
        <ele>0.62</ele>
        <time>2018-01-14T10:17:03Z</time>
      </trkpt>
      <trkpt lat="51.3418" lon="3.26736">
        <ele>0.14</ele>
        <time>2018-01-14T10:17:19Z</time>
      </trkpt>
      <trkpt lat="51.34183" lon="3.26711">
        <ele>0.14</ele>
        <time>2018-01-14T10:17:31Z</time>
      </trkpt>
      <trkpt lat="51.34184" lon="3.26707">
        <ele>0.14</ele>
        <time>2018-01-14T10:17:33Z</time>
      </trkpt>
      <trkpt lat="51.34188" lon="3.26679">
        <ele>0.14</ele>
        <time>2018-01-14T10:17:47Z</time>
      </trkpt>
      <trkpt lat="51.34196" lon="3.26651">
        <ele>0.14</ele>
        <time>2018-01-14T10:18:02Z</time>
      </trkpt>
      <trkpt lat="51.34206" lon="3.26617">
        <ele>0.14</ele>
        <time>2018-01-14T10:18:19Z</time>
      </trkpt>
      <trkpt lat="51.34212" lon="3.26599">
        <ele>0.14</ele>
        <time>2018-01-14T10:18:28Z</time>
      </trkpt>
      <trkpt lat="51.34214" lon="3.26569">
        <ele>1.58</ele>
        <time>2018-01-14T10:18:44Z</time>
      </trkpt>
      <trkpt lat="51.34216" lon="3.26559">
        <ele>1.58</ele>
        <time>2018-01-14T10:18:49Z</time>
      </trkpt>
      <trkpt lat="51.34221" lon="3.26545">
        <ele>1.58</ele>
        <time>2018-01-14T10:18:57Z</time>
      </trkpt>
      <trkpt lat="51.34222" lon="3.26537">
        <ele>2.06</ele>
        <time>2018-01-14T10:19:01Z</time>
      </trkpt>
      <trkpt lat="51.34232" lon="3.26512">
        <ele>2.06</ele>
        <time>2018-01-14T10:19:16Z</time>
      </trkpt>
      <trkpt lat="51.3424" lon="3.26491">
        <ele>2.54</ele>
        <time>2018-01-14T10:19:29Z</time>
      </trkpt>
      <trkpt lat="51.3424" lon="3.26489">
        <ele>2.54</ele>
        <time>2018-01-14T10:19:30Z</time>
      </trkpt>
      <trkpt lat="51.34249" lon="3.26461">
        <ele>3.98</ele>
        <time>2018-01-14T10:19:46Z</time>
      </trkpt>
      <trkpt lat="51.34254" lon="3.26438">
        <ele>4.94</ele>
        <time>2018-01-14T10:19:59Z</time>
      </trkpt>
      <trkpt lat="51.34262" lon="3.2642">
        <ele>5.91</ele>
        <time>2018-01-14T10:20:10Z</time>
      </trkpt>
      <trkpt lat="51.34266" lon="3.26411">
        <ele>6.39</ele>
        <time>2018-01-14T10:20:15Z</time>
      </trkpt>
      <trkpt lat="51.34276" lon="3.26384">
        <ele>7.83</ele>
        <time>2018-01-14T10:20:30Z</time>
      </trkpt>
      <trkpt lat="51.34283" lon="3.26361">
        <ele>8.79</ele>
        <time>2018-01-14T10:20:44Z</time>
      </trkpt>
      <trkpt lat="51.34292" lon="3.26339">
        <ele>9.27</ele>
        <time>2018-01-14T10:20:58Z</time>
      </trkpt>
      <trkpt lat="51.34295" lon="3.26329">
        <ele>9.27</ele>
        <time>2018-01-14T10:21:05Z</time>
      </trkpt>
      <trkpt lat="51.34297" lon="3.2631">
        <ele>9.27</ele>
        <time>2018-01-14T10:21:15Z</time>
      </trkpt>
      <trkpt lat="51.34298" lon="3.26305">
        <ele>9.27</ele>
        <time>2018-01-14T10:21:18Z</time>
      </trkpt>
      <trkpt lat="51.34298" lon="3.26298">
        <ele>9.27</ele>
        <time>2018-01-14T10:21:22Z</time>
      </trkpt>
      <trkpt lat="51.34299" lon="3.26283">
        <ele>9.75</ele>
        <time>2018-01-14T10:21:30Z</time>
      </trkpt>
      <trkpt lat="51.343" lon="3.26266">
        <ele>9.75</ele>
        <time>2018-01-14T10:21:40Z</time>
      </trkpt>
      <trkpt lat="51.34302" lon="3.26238">
        <ele>9.75</ele>
        <time>2018-01-14T10:21:54Z</time>
      </trkpt>
      <trkpt lat="51.34303" lon="3.26215">
        <ele>9.75</ele>
        <time>2018-01-14T10:22:06Z</time>
      </trkpt>
      <trkpt lat="51.34302" lon="3.26205">
        <ele>9.75</ele>
        <time>2018-01-14T10:22:13Z</time>
      </trkpt>
      <trkpt lat="51.34302" lon="3.26187">
        <ele>9.27</ele>
        <time>2018-01-14T10:22:23Z</time>
      </trkpt>
      <trkpt lat="51.34307" lon="3.26157">
        <ele>9.27</ele>
        <time>2018-01-14T10:22:39Z</time>
      </trkpt>
      <trkpt lat="51.34305" lon="3.26151">
        <ele>9.75</ele>
        <time>2018-01-14T10:22:52Z</time>
      </trkpt>
      <trkpt lat="51.34316" lon="3.26122">
        <ele>9.75</ele>
        <time>2018-01-14T10:23:08Z</time>
      </trkpt>
      <trkpt lat="51.34322" lon="3.26101">
        <ele>9.75</ele>
        <time>2018-01-14T10:23:19Z</time>
      </trkpt>
      <trkpt lat="51.34326" lon="3.26082">
        <ele>8.79</ele>
        <time>2018-01-14T10:23:33Z</time>
      </trkpt>
      <trkpt lat="51.34325" lon="3.26072">
        <ele>8.79</ele>
        <time>2018-01-14T10:23:39Z</time>
      </trkpt>
      <trkpt lat="51.34338" lon="3.26044">
        <ele>8.31</ele>
        <time>2018-01-14T10:23:56Z</time>
      </trkpt>
      <trkpt lat="51.34347" lon="3.26029">
        <ele>8.31</ele>
        <time>2018-01-14T10:24:07Z</time>
      </trkpt>
      <trkpt lat="51.34335" lon="3.26005">
        <ele>10.23</ele>
        <time>2018-01-14T10:24:24Z</time>
      </trkpt>
      <trkpt lat="51.34318" lon="3.2599">
        <ele>12.15</ele>
        <time>2018-01-14T10:24:40Z</time>
      </trkpt>
      <trkpt lat="51.343" lon="3.25981">
        <ele>12.15</ele>
        <time>2018-01-14T10:24:57Z</time>
      </trkpt>
      <trkpt lat="51.34293" lon="3.25979">
        <ele>10.71</ele>
        <time>2018-01-14T10:25:03Z</time>
      </trkpt>
      <trkpt lat="51.34278" lon="3.2598">
        <ele>8.31</ele>
        <time>2018-01-14T10:25:17Z</time>
      </trkpt>
      <trkpt lat="51.34273" lon="3.2598">
        <ele>6.87</ele>
        <time>2018-01-14T10:25:22Z</time>
      </trkpt>
      <trkpt lat="51.34269" lon="3.25982">
        <ele>6.39</ele>
        <time>2018-01-14T10:25:26Z</time>
      </trkpt>
      <trkpt lat="51.34264" lon="3.25983">
        <ele>5.91</ele>
        <time>2018-01-14T10:25:30Z</time>
      </trkpt>
      <trkpt lat="51.34254" lon="3.25983">
        <ele>5.42</ele>
        <time>2018-01-14T10:25:40Z</time>
      </trkpt>
      <trkpt lat="51.34248" lon="3.25985">
        <ele>5.42</ele>
        <time>2018-01-14T10:25:44Z</time>
      </trkpt>
      <trkpt lat="51.34244" lon="3.25985">
        <ele>4.94</ele>
        <time>2018-01-14T10:25:47Z</time>
      </trkpt>
      <trkpt lat="51.34226" lon="3.2599">
        <ele>4.94</ele>
        <time>2018-01-14T10:26:00Z</time>
      </trkpt>
      <trkpt lat="51.34203" lon="3.26001">
        <ele>3.98</ele>
        <time>2018-01-14T10:26:17Z</time>
      </trkpt>
      <trkpt lat="51.34196" lon="3.26005">
        <ele>3.98</ele>
        <time>2018-01-14T10:26:24Z</time>
      </trkpt>
      <trkpt lat="51.34193" lon="3.25988">
        <ele>3.98</ele>
        <time>2018-01-14T10:26:32Z</time>
      </trkpt>
      <trkpt lat="51.34186" lon="3.25956">
        <ele>3.5</ele>
        <time>2018-01-14T10:26:48Z</time>
      </trkpt>
      <trkpt lat="51.34179" lon="3.25928">
        <ele>3.5</ele>
        <time>2018-01-14T10:27:05Z</time>
      </trkpt>
      <trkpt lat="51.34174" lon="3.25903">
        <ele>3.5</ele>
        <time>2018-01-14T10:27:20Z</time>
      </trkpt>
      <trkpt lat="51.34168" lon="3.25885">
        <ele>3.5</ele>
        <time>2018-01-14T10:27:29Z</time>
      </trkpt>
      <trkpt lat="51.34167" lon="3.25876">
        <ele>3.02</ele>
        <time>2018-01-14T10:27:33Z</time>
      </trkpt>
      <trkpt lat="51.34174" lon="3.25859">
        <ele>3.02</ele>
        <time>2018-01-14T10:27:41Z</time>
      </trkpt>
      <trkpt lat="51.34166" lon="3.25821">
        <ele>3.5</ele>
        <time>2018-01-14T10:28:00Z</time>
      </trkpt>
      <trkpt lat="51.34156" lon="3.25785">
        <ele>3.5</ele>
        <time>2018-01-14T10:28:18Z</time>
      </trkpt>
      <trkpt lat="51.34153" lon="3.25752">
        <ele>3.5</ele>
        <time>2018-01-14T10:28:34Z</time>
      </trkpt>
      <trkpt lat="51.34157" lon="3.2573">
        <ele>3.02</ele>
        <time>2018-01-14T10:28:48Z</time>
      </trkpt>
      <trkpt lat="51.34158" lon="3.2571">
        <ele>3.02</ele>
        <time>2018-01-14T10:29:03Z</time>
      </trkpt>
      <trkpt lat="51.34154" lon="3.25682">
        <ele>2.54</ele>
        <time>2018-01-14T10:29:18Z</time>
      </trkpt>
      <trkpt lat="51.34153" lon="3.2568">
        <ele>2.54</ele>
        <time>2018-01-14T10:29:19Z</time>
      </trkpt>
      <trkpt lat="51.34143" lon="3.25644">
        <ele>4.94</ele>
        <time>2018-01-14T10:29:37Z</time>
      </trkpt>
      <trkpt lat="51.34135" lon="3.25614">
        <ele>5.42</ele>
        <time>2018-01-14T10:29:54Z</time>
      </trkpt>
      <trkpt lat="51.34129" lon="3.25583">
        <ele>5.42</ele>
        <time>2018-01-14T10:30:08Z</time>
      </trkpt>
      <trkpt lat="51.34128" lon="3.2557">
        <ele>3.98</ele>
        <time>2018-01-14T10:30:14Z</time>
      </trkpt>
      <trkpt lat="51.34122" lon="3.25539">
        <ele>3.02</ele>
        <time>2018-01-14T10:30:31Z</time>
      </trkpt>
      <trkpt lat="51.34118" lon="3.25516">
        <ele>2.54</ele>
        <time>2018-01-14T10:30:44Z</time>
      </trkpt>
      <trkpt lat="51.34109" lon="3.25491">
        <ele>1.58</ele>
        <time>2018-01-14T10:30:59Z</time>
      </trkpt>
      <trkpt lat="51.341" lon="3.2546">
        <ele>1.58</ele>
        <time>2018-01-14T10:31:15Z</time>
      </trkpt>
      <trkpt lat="51.34101" lon="3.25427">
        <ele>1.1</ele>
        <time>2018-01-14T10:31:26Z</time>
      </trkpt>
      <trkpt lat="51.3411" lon="3.25399">
        <ele>1.58</ele>
        <time>2018-01-14T10:31:42Z</time>
      </trkpt>
      <trkpt lat="51.34116" lon="3.25377">
        <ele>2.54</ele>
        <time>2018-01-14T10:31:55Z</time>
      </trkpt>
      <trkpt lat="51.34112" lon="3.25359">
        <ele>2.54</ele>
        <time>2018-01-14T10:32:06Z</time>
      </trkpt>
      <trkpt lat="51.34101" lon="3.25332">
        <ele>2.54</ele>
        <time>2018-01-14T10:32:23Z</time>
      </trkpt>
      <trkpt lat="51.34089" lon="3.25297">
        <ele>2.54</ele>
        <time>2018-01-14T10:32:37Z</time>
      </trkpt>
      <trkpt lat="51.34084" lon="3.25266">
        <ele>3.02</ele>
        <time>2018-01-14T10:32:50Z</time>
      </trkpt>
      <trkpt lat="51.34081" lon="3.25253">
        <ele>3.02</ele>
        <time>2018-01-14T10:32:59Z</time>
      </trkpt>
      <trkpt lat="51.34074" lon="3.25225">
        <ele>3.02</ele>
        <time>2018-01-14T10:33:16Z</time>
      </trkpt>
      <trkpt lat="51.34067" lon="3.25199">
        <ele>3.02</ele>
        <time>2018-01-14T10:33:31Z</time>
      </trkpt>
      <trkpt lat="51.34061" lon="3.25177">
        <ele>3.02</ele>
        <time>2018-01-14T10:33:45Z</time>
      </trkpt>
      <trkpt lat="51.34053" lon="3.25163">
        <ele>3.02</ele>
        <time>2018-01-14T10:33:55Z</time>
      </trkpt>
      <trkpt lat="51.34038" lon="3.25132">
        <ele>3.02</ele>
        <time>2018-01-14T10:34:11Z</time>
      </trkpt>
      <trkpt lat="51.34032" lon="3.25109">
        <ele>3.02</ele>
        <time>2018-01-14T10:34:24Z</time>
      </trkpt>
      <trkpt lat="51.34034" lon="3.25072">
        <ele>2.06</ele>
        <time>2018-01-14T10:34:41Z</time>
      </trkpt>
      <trkpt lat="51.34041" lon="3.25043">
        <ele>1.58</ele>
        <time>2018-01-14T10:34:55Z</time>
      </trkpt>
      <trkpt lat="51.34049" lon="3.25016">
        <ele>1.58</ele>
        <time>2018-01-14T10:35:10Z</time>
      </trkpt>
      <trkpt lat="51.34056" lon="3.24989">
        <ele>2.06</ele>
        <time>2018-01-14T10:35:26Z</time>
      </trkpt>
      <trkpt lat="51.34064" lon="3.24956">
        <ele>2.06</ele>
        <time>2018-01-14T10:35:42Z</time>
      </trkpt>
      <trkpt lat="51.34072" lon="3.24922">
        <ele>2.06</ele>
        <time>2018-01-14T10:35:58Z</time>
      </trkpt>
      <trkpt lat="51.34076" lon="3.24895">
        <ele>2.06</ele>
        <time>2018-01-14T10:36:13Z</time>
      </trkpt>
      <trkpt lat="51.34078" lon="3.24866">
        <ele>2.06</ele>
        <time>2018-01-14T10:36:29Z</time>
      </trkpt>
      <trkpt lat="51.34078" lon="3.24865">
        <ele>2.06</ele>
        <time>2018-01-14T10:36:30Z</time>
      </trkpt>
      <trkpt lat="51.34074" lon="3.2485">
        <ele>3.02</ele>
        <time>2018-01-14T10:36:38Z</time>
      </trkpt>
      <trkpt lat="51.34063" lon="3.24825">
        <ele>3.02</ele>
        <time>2018-01-14T10:36:50Z</time>
      </trkpt>
      <trkpt lat="51.34054" lon="3.24799">
        <ele>3.5</ele>
        <time>2018-01-14T10:37:04Z</time>
      </trkpt>
      <trkpt lat="51.34046" lon="3.24775">
        <ele>3.98</ele>
        <time>2018-01-14T10:37:20Z</time>
      </trkpt>
      <trkpt lat="51.34036" lon="3.24757">
        <ele>3.98</ele>
        <time>2018-01-14T10:37:30Z</time>
      </trkpt>
      <trkpt lat="51.34031" lon="3.24737">
        <ele>4.94</ele>
        <time>2018-01-14T10:37:43Z</time>
      </trkpt>
      <trkpt lat="51.34033" lon="3.24725">
        <ele>5.42</ele>
        <time>2018-01-14T10:37:48Z</time>
      </trkpt>
      <trkpt lat="51.34037" lon="3.247">
        <ele>5.91</ele>
        <time>2018-01-14T10:38:01Z</time>
      </trkpt>
      <trkpt lat="51.34035" lon="3.24671">
        <ele>6.39</ele>
        <time>2018-01-14T10:38:15Z</time>
      </trkpt>
      <trkpt lat="51.34032" lon="3.24652">
        <ele>6.39</ele>
        <time>2018-01-14T10:38:25Z</time>
      </trkpt>
      <trkpt lat="51.34033" lon="3.24637">
        <ele>6.39</ele>
        <time>2018-01-14T10:38:36Z</time>
      </trkpt>
      <trkpt lat="51.34019" lon="3.24637">
        <ele>3.98</ele>
        <time>2018-01-14T10:38:48Z</time>
      </trkpt>
      <trkpt lat="51.33999" lon="3.24633">
        <ele>3.02</ele>
        <time>2018-01-14T10:39:06Z</time>
      </trkpt>
      <trkpt lat="51.33956" lon="3.24639">
        <ele>3.02</ele>
        <time>2018-01-14T10:39:30Z</time>
      </trkpt>
      <trkpt lat="51.33961" lon="3.2463">
        <ele>3.02</ele>
        <time>2018-01-14T10:39:42Z</time>
      </trkpt>
      <trkpt lat="51.3396" lon="3.24628">
        <ele>3.02</ele>
        <time>2018-01-14T10:39:43Z</time>
      </trkpt>
      <trkpt lat="51.33954" lon="3.24603">
        <ele>3.02</ele>
        <time>2018-01-14T10:39:57Z</time>
      </trkpt>
      <trkpt lat="51.33954" lon="3.24576">
        <ele>3.02</ele>
        <time>2018-01-14T10:40:12Z</time>
      </trkpt>
      <trkpt lat="51.33955" lon="3.24575">
        <ele>3.02</ele>
        <time>2018-01-14T10:40:13Z</time>
      </trkpt>
      <trkpt lat="51.33945" lon="3.24568">
        <ele>3.02</ele>
        <time>2018-01-14T10:40:26Z</time>
      </trkpt>
      <trkpt lat="51.33926" lon="3.24555">
        <ele>3.02</ele>
        <time>2018-01-14T10:40:41Z</time>
      </trkpt>
      <trkpt lat="51.33909" lon="3.24554">
        <ele>2.54</ele>
        <time>2018-01-14T10:40:57Z</time>
      </trkpt>
      <trkpt lat="51.33895" lon="3.24548">
        <ele>2.06</ele>
        <time>2018-01-14T10:41:10Z</time>
      </trkpt>
      <trkpt lat="51.33891" lon="3.24549">
        <ele>2.06</ele>
        <time>2018-01-14T10:41:13Z</time>
      </trkpt>
      <trkpt lat="51.3387" lon="3.2455">
        <ele>2.06</ele>
        <time>2018-01-14T10:41:30Z</time>
      </trkpt>
      <trkpt lat="51.33853" lon="3.24552">
        <ele>1.58</ele>
        <time>2018-01-14T10:41:44Z</time>
      </trkpt>
      <trkpt lat="51.33836" lon="3.24549">
        <ele>1.1</ele>
        <time>2018-01-14T10:41:58Z</time>
      </trkpt>
      <trkpt lat="51.33818" lon="3.24547">
        <ele>1.1</ele>
        <time>2018-01-14T10:42:13Z</time>
      </trkpt>
      <trkpt lat="51.33803" lon="3.24543">
        <ele>1.1</ele>
        <time>2018-01-14T10:42:27Z</time>
      </trkpt>
      <trkpt lat="51.338" lon="3.2454">
        <ele>1.1</ele>
        <time>2018-01-14T10:42:31Z</time>
      </trkpt>
      <trkpt lat="51.3379" lon="3.24546">
        <ele>1.1</ele>
        <time>2018-01-14T10:42:38Z</time>
      </trkpt>
      <trkpt lat="51.33773" lon="3.24551">
        <ele>0.62</ele>
        <time>2018-01-14T10:42:53Z</time>
      </trkpt>
      <trkpt lat="51.33773" lon="3.24551">
        <ele>0.62</ele>
        <time>2018-01-14T10:42:54Z</time>
      </trkpt>
      <trkpt lat="51.33763" lon="3.24534">
        <ele>0.62</ele>
        <time>2018-01-14T10:43:07Z</time>
      </trkpt>
      <trkpt lat="51.33762" lon="3.24531">
        <ele>0.62</ele>
        <time>2018-01-14T10:43:10Z</time>
      </trkpt>
      <trkpt lat="51.33762" lon="3.24532">
        <ele>0.62</ele>
        <time>2018-01-14T10:43:26Z</time>
      </trkpt>
      <trkpt lat="51.33754" lon="3.24558">
        <ele>0.14</ele>
        <time>2018-01-14T10:43:44Z</time>
      </trkpt>
      <trkpt lat="51.33746" lon="3.24558">
        <ele>0.14</ele>
        <time>2018-01-14T10:43:50Z</time>
      </trkpt>
      <trkpt lat="51.33729" lon="3.24552">
        <ele>0.62</ele>
        <time>2018-01-14T10:44:07Z</time>
      </trkpt>
      <trkpt lat="51.33724" lon="3.24548">
        <ele>0.62</ele>
        <time>2018-01-14T10:44:11Z</time>
      </trkpt>
      <trkpt lat="51.33711" lon="3.24527">
        <ele>0.14</ele>
        <time>2018-01-14T10:44:27Z</time>
      </trkpt>
      <trkpt lat="51.33709" lon="3.24524">
        <ele>0.14</ele>
        <time>2018-01-14T10:44:30Z</time>
      </trkpt>
      <trkpt lat="51.33703" lon="3.24507">
        <ele>0.14</ele>
        <time>2018-01-14T10:44:44Z</time>
      </trkpt>
      <trkpt lat="51.33705" lon="3.24496">
        <ele>0.14</ele>
        <time>2018-01-14T10:45:01Z</time>
      </trkpt>
      <trkpt lat="51.33702" lon="3.2448">
        <ele>0.14</ele>
        <time>2018-01-14T10:45:20Z</time>
      </trkpt>
      <trkpt lat="51.33712" lon="3.24487">
        <ele>-0.34</ele>
        <time>2018-01-14T10:45:34Z</time>
      </trkpt>
      <trkpt lat="51.33708" lon="3.24494">
        <ele>-0.34</ele>
        <time>2018-01-14T10:45:56Z</time>
      </trkpt>
      <trkpt lat="51.33699" lon="3.24503">
        <ele>-0.34</ele>
        <time>2018-01-14T10:46:08Z</time>
      </trkpt>
      <trkpt lat="51.33699" lon="3.24502">
        <ele>-0.34</ele>
        <time>2018-01-14T10:46:09Z</time>
      </trkpt>
      <trkpt lat="51.33698" lon="3.24508">
        <ele>-0.34</ele>
        <time>2018-01-14T10:46:19Z</time>
      </trkpt>
      <trkpt lat="51.33701" lon="3.24509">
        <ele>-0.34</ele>
        <time>2018-01-14T10:46:30Z</time>
      </trkpt>
      <trkpt lat="51.337" lon="3.24509">
        <ele>-1.3</ele>
        <time>2018-01-14T10:46:42Z</time>
      </trkpt>
      <trkpt lat="51.33704" lon="3.24504">
        <ele>-1.3</ele>
        <time>2018-01-14T10:47:05Z</time>
      </trkpt>
      <trkpt lat="51.33703" lon="3.24508">
        <ele>-1.3</ele>
        <time>2018-01-14T10:47:32Z</time>
      </trkpt>
      <trkpt lat="51.33702" lon="3.24509">
        <ele>0.14</ele>
        <time>2018-01-14T10:47:39Z</time>
      </trkpt>
      <trkpt lat="51.33705" lon="3.24502">
        <ele>0.14</ele>
        <time>2018-01-14T10:48:03Z</time>
      </trkpt>
      <trkpt lat="51.33698" lon="3.24506">
        <ele>0.62</ele>
        <time>2018-01-14T10:48:29Z</time>
      </trkpt>
      <trkpt lat="51.33697" lon="3.24508">
        <ele>0.14</ele>
        <time>2018-01-14T10:48:50Z</time>
      </trkpt>
      <trkpt lat="51.33695" lon="3.2451">
        <ele>0.14</ele>
        <time>2018-01-14T10:49:08Z</time>
      </trkpt>
      <trkpt lat="51.33696" lon="3.24511">
        <ele>0.14</ele>
        <time>2018-01-14T10:49:23Z</time>
      </trkpt>
      <trkpt lat="51.33695" lon="3.24515">
        <ele>0.14</ele>
        <time>2018-01-14T10:49:40Z</time>
      </trkpt>
      <trkpt lat="51.33698" lon="3.2451">
        <ele>0.14</ele>
        <time>2018-01-14T10:50:02Z</time>
      </trkpt>
      <trkpt lat="51.337" lon="3.24505">
        <ele>0.14</ele>
        <time>2018-01-14T10:50:27Z</time>
      </trkpt>
      <trkpt lat="51.33702" lon="3.24498">
        <ele>1.1</ele>
        <time>2018-01-14T10:50:48Z</time>
      </trkpt>
      <trkpt lat="51.33702" lon="3.24494">
        <ele>1.1</ele>
        <time>2018-01-14T10:51:14Z</time>
      </trkpt>
      <trkpt lat="51.337" lon="3.24495">
        <ele>1.1</ele>
        <time>2018-01-14T10:51:44Z</time>
      </trkpt>
      <trkpt lat="51.337" lon="3.24502">
        <ele>1.58</ele>
        <time>2018-01-14T10:51:58Z</time>
      </trkpt>
      <trkpt lat="51.33697" lon="3.24507">
        <ele>0.62</ele>
        <time>2018-01-14T10:52:18Z</time>
      </trkpt>
      <trkpt lat="51.33699" lon="3.24502">
        <ele>0.62</ele>
        <time>2018-01-14T10:52:37Z</time>
      </trkpt>
      <trkpt lat="51.33702" lon="3.24495">
        <ele>0.62</ele>
        <time>2018-01-14T10:53:04Z</time>
      </trkpt>
      <trkpt lat="51.33704" lon="3.24494">
        <ele>0.62</ele>
        <time>2018-01-14T10:53:36Z</time>
      </trkpt>
      <trkpt lat="51.337" lon="3.245">
        <ele>0.62</ele>
        <time>2018-01-14T10:54:04Z</time>
      </trkpt>
      <trkpt lat="51.337" lon="3.24514">
        <ele>0.62</ele>
        <time>2018-01-14T10:54:12Z</time>
      </trkpt>
      <trkpt lat="51.33709" lon="3.24525">
        <ele>1.1</ele>
        <time>2018-01-14T10:54:25Z</time>
      </trkpt>
      <trkpt lat="51.33712" lon="3.24528">
        <ele>1.1</ele>
        <time>2018-01-14T10:54:28Z</time>
      </trkpt>
      <trkpt lat="51.33717" lon="3.24528">
        <ele>2.06</ele>
        <time>2018-01-14T10:54:31Z</time>
      </trkpt>
      <trkpt lat="51.3372" lon="3.2453">
        <ele>2.06</ele>
        <time>2018-01-14T10:54:34Z</time>
      </trkpt>
      <trkpt lat="51.33726" lon="3.24535">
        <ele>2.54</ele>
        <time>2018-01-14T10:54:47Z</time>
      </trkpt>
      <trkpt lat="51.33732" lon="3.24536">
        <ele>2.54</ele>
        <time>2018-01-14T10:55:12Z</time>
      </trkpt>
      <trkpt lat="51.33735" lon="3.24535">
        <ele>2.54</ele>
        <time>2018-01-14T10:55:43Z</time>
      </trkpt>
      <trkpt lat="51.33727" lon="3.24527">
        <ele>3.02</ele>
        <time>2018-01-14T10:55:56Z</time>
      </trkpt>
      <trkpt lat="51.33723" lon="3.24527">
        <ele>2.06</ele>
        <time>2018-01-14T10:56:08Z</time>
      </trkpt>
      <trkpt lat="51.33722" lon="3.24529">
        <ele>2.06</ele>
        <time>2018-01-14T10:56:27Z</time>
      </trkpt>
      <trkpt lat="51.33721" lon="3.24528">
        <ele>2.06</ele>
        <time>2018-01-14T10:56:42Z</time>
      </trkpt>
      <trkpt lat="51.33719" lon="3.24524">
        <ele>2.06</ele>
        <time>2018-01-14T10:57:03Z</time>
      </trkpt>
      <trkpt lat="51.33719" lon="3.24523">
        <ele>2.06</ele>
        <time>2018-01-14T10:57:28Z</time>
      </trkpt>
      <trkpt lat="51.3372" lon="3.24523">
        <ele>3.02</ele>
        <time>2018-01-14T10:57:34Z</time>
      </trkpt>
      <trkpt lat="51.33721" lon="3.24528">
        <ele>3.5</ele>
        <time>2018-01-14T10:57:53Z</time>
      </trkpt>
      <trkpt lat="51.33723" lon="3.24529">
        <ele>3.5</ele>
        <time>2018-01-14T10:58:13Z</time>
      </trkpt>
      <trkpt lat="51.33723" lon="3.24529">
        <ele>2.06</ele>
        <time>2018-01-14T10:58:14Z</time>
      </trkpt>
      <trkpt lat="51.33712" lon="3.24522">
        <ele>2.06</ele>
        <time>2018-01-14T10:58:28Z</time>
      </trkpt>
      <trkpt lat="51.33711" lon="3.24522">
        <ele>2.06</ele>
        <time>2018-01-14T10:58:29Z</time>
      </trkpt>
      <trkpt lat="51.33704" lon="3.24522">
        <ele>3.5</ele>
        <time>2018-01-14T10:58:40Z</time>
      </trkpt>
      <trkpt lat="51.33696" lon="3.2452">
        <ele>2.06</ele>
        <time>2018-01-14T10:58:50Z</time>
      </trkpt>
      <trkpt lat="51.33695" lon="3.2452">
        <ele>2.06</ele>
        <time>2018-01-14T10:58:51Z</time>
      </trkpt>
      <trkpt lat="51.3368" lon="3.24529">
        <ele>2.06</ele>
        <time>2018-01-14T10:59:06Z</time>
      </trkpt>
      <trkpt lat="51.33676" lon="3.24527">
        <ele>2.06</ele>
        <time>2018-01-14T10:59:11Z</time>
      </trkpt>
      <trkpt lat="51.33674" lon="3.24525">
        <ele>2.54</ele>
        <time>2018-01-14T10:59:13Z</time>
      </trkpt>
      <trkpt lat="51.33657" lon="3.24518">
        <ele>2.06</ele>
        <time>2018-01-14T10:59:30Z</time>
      </trkpt>
      <trkpt lat="51.3364" lon="3.24509">
        <ele>2.06</ele>
        <time>2018-01-14T10:59:45Z</time>
      </trkpt>
      <trkpt lat="51.33635" lon="3.24508">
        <ele>2.06</ele>
        <time>2018-01-14T10:59:52Z</time>
      </trkpt>
      <trkpt lat="51.33631" lon="3.2454">
        <ele>2.06</ele>
        <time>2018-01-14T11:00:07Z</time>
      </trkpt>
      <trkpt lat="51.33626" lon="3.24555">
        <ele>2.06</ele>
        <time>2018-01-14T11:00:17Z</time>
      </trkpt>
      <trkpt lat="51.33625" lon="3.24586">
        <ele>2.06</ele>
        <time>2018-01-14T11:00:33Z</time>
      </trkpt>
      <trkpt lat="51.33624" lon="3.246">
        <ele>1.58</ele>
        <time>2018-01-14T11:00:42Z</time>
      </trkpt>
      <trkpt lat="51.33627" lon="3.24603">
        <ele>1.58</ele>
        <time>2018-01-14T11:00:46Z</time>
      </trkpt>
      <trkpt lat="51.33641" lon="3.24612">
        <ele>1.58</ele>
        <time>2018-01-14T11:01:04Z</time>
      </trkpt>
      <trkpt lat="51.33658" lon="3.24624">
        <ele>1.1</ele>
        <time>2018-01-14T11:01:19Z</time>
      </trkpt>
      <trkpt lat="51.33677" lon="3.2463">
        <ele>1.1</ele>
        <time>2018-01-14T11:01:37Z</time>
      </trkpt>
      <trkpt lat="51.33696" lon="3.24634">
        <ele>1.1</ele>
        <time>2018-01-14T11:01:51Z</time>
      </trkpt>
      <trkpt lat="51.33716" lon="3.24633">
        <ele>0.62</ele>
        <time>2018-01-14T11:02:11Z</time>
      </trkpt>
      <trkpt lat="51.33737" lon="3.24631">
        <ele>0.62</ele>
        <time>2018-01-14T11:02:30Z</time>
      </trkpt>
      <trkpt lat="51.33754" lon="3.24626">
        <ele>0.62</ele>
        <time>2018-01-14T11:02:40Z</time>
      </trkpt>
      <trkpt lat="51.33763" lon="3.24644">
        <ele>0.62</ele>
        <time>2018-01-14T11:02:53Z</time>
      </trkpt>
      <trkpt lat="51.33763" lon="3.24677">
        <ele>0.14</ele>
        <time>2018-01-14T11:03:10Z</time>
      </trkpt>
      <trkpt lat="51.33755" lon="3.24702">
        <ele>0.14</ele>
        <time>2018-01-14T11:03:23Z</time>
      </trkpt>
      <trkpt lat="51.33748" lon="3.24731">
        <ele>0.14</ele>
        <time>2018-01-14T11:03:37Z</time>
      </trkpt>
      <trkpt lat="51.3373" lon="3.24768">
        <ele>0.14</ele>
        <time>2018-01-14T11:03:57Z</time>
      </trkpt>
      <trkpt lat="51.33723" lon="3.24795">
        <ele>0.14</ele>
        <time>2018-01-14T11:04:12Z</time>
      </trkpt>
      <trkpt lat="51.33723" lon="3.24798">
        <ele>0.14</ele>
        <time>2018-01-14T11:04:14Z</time>
      </trkpt>
      <trkpt lat="51.33723" lon="3.24802">
        <ele>0.14</ele>
        <time>2018-01-14T11:04:16Z</time>
      </trkpt>
      <trkpt lat="51.33715" lon="3.24837">
        <ele>0.14</ele>
        <time>2018-01-14T11:04:34Z</time>
      </trkpt>
      <trkpt lat="51.33711" lon="3.24862">
        <ele>0.14</ele>
        <time>2018-01-14T11:04:48Z</time>
      </trkpt>
      <trkpt lat="51.33709" lon="3.24884">
        <ele>-0.34</ele>
        <time>2018-01-14T11:05:01Z</time>
      </trkpt>
      <trkpt lat="51.33703" lon="3.24903">
        <ele>-0.34</ele>
        <time>2018-01-14T11:05:09Z</time>
      </trkpt>
      <trkpt lat="51.33704" lon="3.24933">
        <ele>-0.34</ele>
        <time>2018-01-14T11:05:23Z</time>
      </trkpt>
      <trkpt lat="51.33706" lon="3.24942">
        <ele>-0.34</ele>
        <time>2018-01-14T11:05:29Z</time>
      </trkpt>
      <trkpt lat="51.33709" lon="3.2495">
        <ele>-0.34</ele>
        <time>2018-01-14T11:05:34Z</time>
      </trkpt>
      <trkpt lat="51.33715" lon="3.24974">
        <ele>-0.34</ele>
        <time>2018-01-14T11:05:48Z</time>
      </trkpt>
      <trkpt lat="51.3373" lon="3.25003">
        <ele>0.62</ele>
        <time>2018-01-14T11:06:07Z</time>
      </trkpt>
      <trkpt lat="51.33731" lon="3.25011">
        <ele>-0.34</ele>
        <time>2018-01-14T11:06:11Z</time>
      </trkpt>
      <trkpt lat="51.33743" lon="3.25034">
        <ele>-0.82</ele>
        <time>2018-01-14T11:06:26Z</time>
      </trkpt>
      <trkpt lat="51.33754" lon="3.25052">
        <ele>-0.82</ele>
        <time>2018-01-14T11:06:38Z</time>
      </trkpt>
      <trkpt lat="51.33757" lon="3.25058">
        <ele>0.62</ele>
        <time>2018-01-14T11:06:41Z</time>
      </trkpt>
      <trkpt lat="51.33762" lon="3.25069">
        <ele>0.62</ele>
        <time>2018-01-14T11:06:47Z</time>
      </trkpt>
      <trkpt lat="51.33768" lon="3.251">
        <ele>0.62</ele>
        <time>2018-01-14T11:07:03Z</time>
      </trkpt>
      <trkpt lat="51.3377" lon="3.25132">
        <ele>0.62</ele>
        <time>2018-01-14T11:07:20Z</time>
      </trkpt>
      <trkpt lat="51.33771" lon="3.25136">
        <ele>0.14</ele>
        <time>2018-01-14T11:07:22Z</time>
      </trkpt>
      <trkpt lat="51.3377" lon="3.2514">
        <ele>-1.3</ele>
        <time>2018-01-14T11:07:24Z</time>
      </trkpt>
      <trkpt lat="51.33777" lon="3.25153">
        <ele>0.14</ele>
        <time>2018-01-14T11:07:32Z</time>
      </trkpt>
      <trkpt lat="51.33777" lon="3.25155">
        <ele>0.14</ele>
        <time>2018-01-14T11:07:33Z</time>
      </trkpt>
      <trkpt lat="51.33781" lon="3.25186">
        <ele>0.14</ele>
        <time>2018-01-14T11:07:49Z</time>
      </trkpt>
      <trkpt lat="51.33785" lon="3.25198">
        <ele>0.14</ele>
        <time>2018-01-14T11:07:56Z</time>
      </trkpt>
      <trkpt lat="51.33787" lon="3.25212">
        <ele>-0.34</ele>
        <time>2018-01-14T11:08:03Z</time>
      </trkpt>
      <trkpt lat="51.33799" lon="3.25235">
        <ele>-0.34</ele>
        <time>2018-01-14T11:08:14Z</time>
      </trkpt>
      <trkpt lat="51.33811" lon="3.25263">
        <ele>-0.34</ele>
        <time>2018-01-14T11:08:29Z</time>
      </trkpt>
      <trkpt lat="51.33823" lon="3.25295">
        <ele>-0.34</ele>
        <time>2018-01-14T11:08:46Z</time>
      </trkpt>
      <trkpt lat="51.3383" lon="3.25318">
        <ele>-0.34</ele>
        <time>2018-01-14T11:09:00Z</time>
      </trkpt>
      <trkpt lat="51.33835" lon="3.25337">
        <ele>-0.34</ele>
        <time>2018-01-14T11:09:12Z</time>
      </trkpt>
      <trkpt lat="51.33841" lon="3.25362">
        <ele>-0.34</ele>
        <time>2018-01-14T11:09:26Z</time>
      </trkpt>
      <trkpt lat="51.33845" lon="3.25378">
        <ele>-0.34</ele>
        <time>2018-01-14T11:09:35Z</time>
      </trkpt>
      <trkpt lat="51.33851" lon="3.25389">
        <ele>-0.34</ele>
        <time>2018-01-14T11:09:42Z</time>
      </trkpt>
      <trkpt lat="51.33856" lon="3.25418">
        <ele>-0.34</ele>
        <time>2018-01-14T11:09:57Z</time>
      </trkpt>
      <trkpt lat="51.33859" lon="3.2544">
        <ele>-0.34</ele>
        <time>2018-01-14T11:10:10Z</time>
      </trkpt>
      <trkpt lat="51.33866" lon="3.25453">
        <ele>-0.34</ele>
        <time>2018-01-14T11:10:21Z</time>
      </trkpt>
      <trkpt lat="51.33878" lon="3.25471">
        <ele>-0.34</ele>
        <time>2018-01-14T11:10:34Z</time>
      </trkpt>
      <trkpt lat="51.33894" lon="3.25488">
        <ele>-0.82</ele>
        <time>2018-01-14T11:10:49Z</time>
      </trkpt>
      <trkpt lat="51.33906" lon="3.25512">
        <ele>-0.34</ele>
        <time>2018-01-14T11:11:04Z</time>
      </trkpt>
      <trkpt lat="51.33909" lon="3.25535">
        <ele>-0.34</ele>
        <time>2018-01-14T11:11:15Z</time>
      </trkpt>
      <trkpt lat="51.33912" lon="3.25547">
        <ele>-1.79</ele>
        <time>2018-01-14T11:11:21Z</time>
      </trkpt>
      <trkpt lat="51.3391" lon="3.25559">
        <ele>-0.82</ele>
        <time>2018-01-14T11:11:28Z</time>
      </trkpt>
      <trkpt lat="51.33891" lon="3.25566">
        <ele>-0.82</ele>
        <time>2018-01-14T11:11:43Z</time>
      </trkpt>
      <trkpt lat="51.33873" lon="3.2557">
        <ele>-1.79</ele>
        <time>2018-01-14T11:11:59Z</time>
      </trkpt>
      <trkpt lat="51.33856" lon="3.2558">
        <ele>-1.79</ele>
        <time>2018-01-14T11:12:14Z</time>
      </trkpt>
      <trkpt lat="51.33842" lon="3.25593">
        <ele>-1.79</ele>
        <time>2018-01-14T11:12:28Z</time>
      </trkpt>
      <trkpt lat="51.3382" lon="3.25609">
        <ele>-1.79</ele>
        <time>2018-01-14T11:12:45Z</time>
      </trkpt>
      <trkpt lat="51.33798" lon="3.2562">
        <ele>-2.27</ele>
        <time>2018-01-14T11:13:02Z</time>
      </trkpt>
      <trkpt lat="51.33775" lon="3.25622">
        <ele>-2.27</ele>
        <time>2018-01-14T11:13:19Z</time>
      </trkpt>
      <trkpt lat="51.33751" lon="3.25622">
        <ele>-2.27</ele>
        <time>2018-01-14T11:13:37Z</time>
      </trkpt>
      <trkpt lat="51.33748" lon="3.2562">
        <ele>-2.27</ele>
        <time>2018-01-14T11:13:40Z</time>
      </trkpt>
      <trkpt lat="51.33729" lon="3.25614">
        <ele>-2.75</ele>
        <time>2018-01-14T11:13:55Z</time>
      </trkpt>
      <trkpt lat="51.33716" lon="3.25622">
        <ele>-2.75</ele>
        <time>2018-01-14T11:14:07Z</time>
      </trkpt>
      <trkpt lat="51.33712" lon="3.25618">
        <ele>-2.75</ele>
        <time>2018-01-14T11:14:11Z</time>
      </trkpt>
      <trkpt lat="51.33702" lon="3.25584">
        <ele>-0.82</ele>
        <time>2018-01-14T11:14:29Z</time>
      </trkpt>
      <trkpt lat="51.33691" lon="3.25545">
        <ele>-0.82</ele>
        <time>2018-01-14T11:14:50Z</time>
      </trkpt>
      <trkpt lat="51.3368" lon="3.25517">
        <ele>-0.82</ele>
        <time>2018-01-14T11:15:07Z</time>
      </trkpt>
      <trkpt lat="51.3366" lon="3.25494">
        <ele>-0.82</ele>
        <time>2018-01-14T11:15:25Z</time>
      </trkpt>
      <trkpt lat="51.33645" lon="3.25477">
        <ele>-0.82</ele>
        <time>2018-01-14T11:15:40Z</time>
      </trkpt>
      <trkpt lat="51.33626" lon="3.25459">
        <ele>-0.82</ele>
        <time>2018-01-14T11:15:58Z</time>
      </trkpt>
      <trkpt lat="51.33609" lon="3.25442">
        <ele>-0.82</ele>
        <time>2018-01-14T11:16:14Z</time>
      </trkpt>
      <trkpt lat="51.3359" lon="3.25422">
        <ele>-0.82</ele>
        <time>2018-01-14T11:16:32Z</time>
      </trkpt>
      <trkpt lat="51.33573" lon="3.25405">
        <ele>-0.82</ele>
        <time>2018-01-14T11:16:48Z</time>
      </trkpt>
      <trkpt lat="51.33554" lon="3.25387">
        <ele>-0.82</ele>
        <time>2018-01-14T11:17:05Z</time>
      </trkpt>
      <trkpt lat="51.33536" lon="3.25367">
        <ele>-0.82</ele>
        <time>2018-01-14T11:17:22Z</time>
      </trkpt>
      <trkpt lat="51.33518" lon="3.2535">
        <ele>-0.82</ele>
        <time>2018-01-14T11:17:38Z</time>
      </trkpt>
      <trkpt lat="51.335" lon="3.25332">
        <ele>-0.82</ele>
        <time>2018-01-14T11:17:55Z</time>
      </trkpt>
      <trkpt lat="51.33483" lon="3.25317">
        <ele>-0.82</ele>
        <time>2018-01-14T11:18:10Z</time>
      </trkpt>
      <trkpt lat="51.33462" lon="3.25297">
        <ele>-0.82</ele>
        <time>2018-01-14T11:18:29Z</time>
      </trkpt>
      <trkpt lat="51.33441" lon="3.25277">
        <ele>-0.82</ele>
        <time>2018-01-14T11:18:48Z</time>
      </trkpt>
      <trkpt lat="51.33423" lon="3.2526">
        <ele>-0.82</ele>
        <time>2018-01-14T11:19:05Z</time>
      </trkpt>
      <trkpt lat="51.33412" lon="3.25249">
        <ele>-0.82</ele>
        <time>2018-01-14T11:19:15Z</time>
      </trkpt>
      <trkpt lat="51.3341" lon="3.25232">
        <ele>-0.82</ele>
        <time>2018-01-14T11:19:24Z</time>
      </trkpt>
      <trkpt lat="51.33403" lon="3.25204">
        <ele>-0.82</ele>
        <time>2018-01-14T11:19:40Z</time>
      </trkpt>
      <trkpt lat="51.33409" lon="3.25166">
        <ele>-0.82</ele>
        <time>2018-01-14T11:19:58Z</time>
      </trkpt>
      <trkpt lat="51.33415" lon="3.25133">
        <ele>-0.82</ele>
        <time>2018-01-14T11:20:14Z</time>
      </trkpt>
      <trkpt lat="51.33415" lon="3.2513">
        <ele>-0.82</ele>
        <time>2018-01-14T11:20:18Z</time>
      </trkpt>
      <trkpt lat="51.3341" lon="3.25112">
        <ele>-0.82</ele>
        <time>2018-01-14T11:20:28Z</time>
      </trkpt>
      <trkpt lat="51.33411" lon="3.25101">
        <ele>-0.82</ele>
        <time>2018-01-14T11:20:34Z</time>
      </trkpt>
      <trkpt lat="51.33418" lon="3.25062">
        <ele>-0.82</ele>
        <time>2018-01-14T11:20:53Z</time>
      </trkpt>
      <trkpt lat="51.33426" lon="3.25024">
        <ele>-0.82</ele>
        <time>2018-01-14T11:21:13Z</time>
      </trkpt>
      <trkpt lat="51.33431" lon="3.24994">
        <ele>-0.82</ele>
        <time>2018-01-14T11:21:28Z</time>
      </trkpt>
      <trkpt lat="51.33433" lon="3.24981">
        <ele>-0.82</ele>
        <time>2018-01-14T11:21:37Z</time>
      </trkpt>
      <trkpt lat="51.33433" lon="3.24967">
        <ele>-0.82</ele>
        <time>2018-01-14T11:21:45Z</time>
      </trkpt>
      <trkpt lat="51.33428" lon="3.24956">
        <ele>-0.82</ele>
        <time>2018-01-14T11:21:53Z</time>
      </trkpt>
      <trkpt lat="51.33428" lon="3.24946">
        <ele>-0.82</ele>
        <time>2018-01-14T11:21:58Z</time>
      </trkpt>
      <trkpt lat="51.33434" lon="3.24932">
        <ele>-1.3</ele>
        <time>2018-01-14T11:22:13Z</time>
      </trkpt>
      <trkpt lat="51.33429" lon="3.24929">
        <ele>-1.3</ele>
        <time>2018-01-14T11:22:22Z</time>
      </trkpt>
      <trkpt lat="51.33423" lon="3.24924">
        <ele>-1.3</ele>
        <time>2018-01-14T11:22:27Z</time>
      </trkpt>
      <trkpt lat="51.33402" lon="3.24906">
        <ele>-1.3</ele>
        <time>2018-01-14T11:22:43Z</time>
      </trkpt>
      <trkpt lat="51.33383" lon="3.24893">
        <ele>-1.3</ele>
        <time>2018-01-14T11:22:59Z</time>
      </trkpt>
      <trkpt lat="51.33372" lon="3.24875">
        <ele>-1.3</ele>
        <time>2018-01-14T11:23:11Z</time>
      </trkpt>
      <trkpt lat="51.3335" lon="3.24848">
        <ele>-1.3</ele>
        <time>2018-01-14T11:23:32Z</time>
      </trkpt>
      <trkpt lat="51.33349" lon="3.24845">
        <ele>-1.3</ele>
        <time>2018-01-14T11:23:34Z</time>
      </trkpt>
      <trkpt lat="51.33338" lon="3.24832">
        <ele>-1.79</ele>
        <time>2018-01-14T11:23:46Z</time>
      </trkpt>
      <trkpt lat="51.33334" lon="3.24824">
        <ele>-1.79</ele>
        <time>2018-01-14T11:23:50Z</time>
      </trkpt>
      <trkpt lat="51.33323" lon="3.24793">
        <ele>-2.75</ele>
        <time>2018-01-14T11:24:08Z</time>
      </trkpt>
      <trkpt lat="51.33314" lon="3.24767">
        <ele>-2.75</ele>
        <time>2018-01-14T11:24:24Z</time>
      </trkpt>
      <trkpt lat="51.33326" lon="3.24745">
        <ele>-2.75</ele>
        <time>2018-01-14T11:24:39Z</time>
      </trkpt>
      <trkpt lat="51.33329" lon="3.2474">
        <ele>-2.75</ele>
        <time>2018-01-14T11:24:43Z</time>
      </trkpt>
      <trkpt lat="51.33332" lon="3.24729">
        <ele>-2.75</ele>
        <time>2018-01-14T11:24:48Z</time>
      </trkpt>
      <trkpt lat="51.33337" lon="3.247">
        <ele>-2.75</ele>
        <time>2018-01-14T11:25:03Z</time>
      </trkpt>
      <trkpt lat="51.33342" lon="3.24675">
        <ele>-2.75</ele>
        <time>2018-01-14T11:25:16Z</time>
      </trkpt>
      <trkpt lat="51.33346" lon="3.24645">
        <ele>-2.75</ele>
        <time>2018-01-14T11:25:33Z</time>
      </trkpt>
      <trkpt lat="51.33351" lon="3.24616">
        <ele>-2.75</ele>
        <time>2018-01-14T11:25:47Z</time>
      </trkpt>
      <trkpt lat="51.33355" lon="3.24588">
        <ele>-2.75</ele>
        <time>2018-01-14T11:26:02Z</time>
      </trkpt>
      <trkpt lat="51.33359" lon="3.2457">
        <ele>-2.75</ele>
        <time>2018-01-14T11:26:12Z</time>
      </trkpt>
      <trkpt lat="51.33364" lon="3.24536">
        <ele>-1.79</ele>
        <time>2018-01-14T11:26:27Z</time>
      </trkpt>
      <trkpt lat="51.33363" lon="3.24503">
        <ele>-1.79</ele>
        <time>2018-01-14T11:26:42Z</time>
      </trkpt>
      <trkpt lat="51.33354" lon="3.24486">
        <ele>-1.79</ele>
        <time>2018-01-14T11:26:53Z</time>
      </trkpt>
      <trkpt lat="51.33347" lon="3.24456">
        <ele>-1.79</ele>
        <time>2018-01-14T11:27:09Z</time>
      </trkpt>
      <trkpt lat="51.3334" lon="3.24429">
        <ele>-1.79</ele>
        <time>2018-01-14T11:27:24Z</time>
      </trkpt>
      <trkpt lat="51.33336" lon="3.24405">
        <ele>-1.79</ele>
        <time>2018-01-14T11:27:38Z</time>
      </trkpt>
      <trkpt lat="51.33334" lon="3.24387">
        <ele>-1.79</ele>
        <time>2018-01-14T11:27:48Z</time>
      </trkpt>
      <trkpt lat="51.33329" lon="3.24353">
        <ele>-1.79</ele>
        <time>2018-01-14T11:28:04Z</time>
      </trkpt>
      <trkpt lat="51.33329" lon="3.24351">
        <ele>-2.27</ele>
        <time>2018-01-14T11:28:05Z</time>
      </trkpt>
      <trkpt lat="51.33311" lon="3.24334">
        <ele>-3.23</ele>
        <time>2018-01-14T11:28:19Z</time>
      </trkpt>
      <trkpt lat="51.33288" lon="3.24346">
        <ele>-3.23</ele>
        <time>2018-01-14T11:28:37Z</time>
      </trkpt>
      <trkpt lat="51.33269" lon="3.24353">
        <ele>-3.71</ele>
        <time>2018-01-14T11:28:53Z</time>
      </trkpt>
      <trkpt lat="51.33251" lon="3.24361">
        <ele>-3.71</ele>
        <time>2018-01-14T11:29:07Z</time>
      </trkpt>
      <trkpt lat="51.33231" lon="3.24372">
        <ele>-3.71</ele>
        <time>2018-01-14T11:29:24Z</time>
      </trkpt>
      <trkpt lat="51.33212" lon="3.2438">
        <ele>-3.71</ele>
        <time>2018-01-14T11:29:40Z</time>
      </trkpt>
      <trkpt lat="51.33192" lon="3.24386">
        <ele>-3.71</ele>
        <time>2018-01-14T11:29:57Z</time>
      </trkpt>
      <trkpt lat="51.33173" lon="3.2439">
        <ele>-3.71</ele>
        <time>2018-01-14T11:30:12Z</time>
      </trkpt>
      <trkpt lat="51.33157" lon="3.24372">
        <ele>-3.71</ele>
        <time>2018-01-14T11:30:29Z</time>
      </trkpt>
      <trkpt lat="51.33141" lon="3.24373">
        <ele>-3.71</ele>
        <time>2018-01-14T11:30:43Z</time>
      </trkpt>
      <trkpt lat="51.33127" lon="3.24378">
        <ele>-2.27</ele>
        <time>2018-01-14T11:30:54Z</time>
      </trkpt>
      <trkpt lat="51.33118" lon="3.2438">
        <ele>-2.27</ele>
        <time>2018-01-14T11:31:02Z</time>
      </trkpt>
      <trkpt lat="51.33112" lon="3.24376">
        <ele>-2.27</ele>
        <time>2018-01-14T11:31:06Z</time>
      </trkpt>
      <trkpt lat="51.33102" lon="3.24354">
        <ele>-2.27</ele>
        <time>2018-01-14T11:31:18Z</time>
      </trkpt>
      <trkpt lat="51.33087" lon="3.24337">
        <ele>-2.27</ele>
        <time>2018-01-14T11:31:29Z</time>
      </trkpt>
      <trkpt lat="51.33089" lon="3.24305">
        <ele>-1.79</ele>
        <time>2018-01-14T11:31:41Z</time>
      </trkpt>
      <trkpt lat="51.33084" lon="3.24299">
        <ele>-1.3</ele>
        <time>2018-01-14T11:31:47Z</time>
      </trkpt>
      <trkpt lat="51.33083" lon="3.24299">
        <ele>-1.3</ele>
        <time>2018-01-14T11:31:48Z</time>
      </trkpt>
      <trkpt lat="51.33064" lon="3.24297">
        <ele>-2.75</ele>
        <time>2018-01-14T11:31:59Z</time>
      </trkpt>
      <trkpt lat="51.33063" lon="3.24294">
        <ele>-2.75</ele>
        <time>2018-01-14T11:32:00Z</time>
      </trkpt>
      <trkpt lat="51.33062" lon="3.24293">
        <ele>-2.75</ele>
        <time>2018-01-14T11:32:01Z</time>
      </trkpt>
      <trkpt lat="51.33062" lon="3.24291">
        <ele>-2.75</ele>
        <time>2018-01-14T11:32:02Z</time>
      </trkpt>
      <trkpt lat="51.3306" lon="3.24292">
        <ele>-2.75</ele>
        <time>2018-01-14T11:32:03Z</time>
      </trkpt>
      <trkpt lat="51.33057" lon="3.24292">
        <ele>-2.75</ele>
        <time>2018-01-14T11:32:04Z</time>
      </trkpt>
      <trkpt lat="51.33056" lon="3.2429">
        <ele>-2.75</ele>
        <time>2018-01-14T11:32:05Z</time>
      </trkpt>
      <trkpt lat="51.33047" lon="3.24274">
        <ele>-1.3</ele>
        <time>2018-01-14T11:32:17Z</time>
      </trkpt>
      <trkpt lat="51.33043" lon="3.24266">
        <ele>-1.3</ele>
        <time>2018-01-14T11:32:22Z</time>
      </trkpt>
      <trkpt lat="51.33041" lon="3.24265">
        <ele>-1.3</ele>
        <time>2018-01-14T11:32:23Z</time>
      </trkpt>
      <trkpt lat="51.33036" lon="3.24261">
        <ele>-1.3</ele>
        <time>2018-01-14T11:32:26Z</time>
      </trkpt>
      <trkpt lat="51.33035" lon="3.24259">
        <ele>-1.3</ele>
        <time>2018-01-14T11:32:27Z</time>
      </trkpt>
      <trkpt lat="51.33033" lon="3.24258">
        <ele>-1.3</ele>
        <time>2018-01-14T11:32:28Z</time>
      </trkpt>
      <trkpt lat="51.33016" lon="3.24253">
        <ele>-2.75</ele>
        <time>2018-01-14T11:32:41Z</time>
      </trkpt>
      <trkpt lat="51.33008" lon="3.24254">
        <ele>-1.79</ele>
        <time>2018-01-14T11:32:47Z</time>
      </trkpt>
      <trkpt lat="51.33007" lon="3.24253">
        <ele>-1.79</ele>
        <time>2018-01-14T11:32:48Z</time>
      </trkpt>
      <trkpt lat="51.32998" lon="3.2423">
        <ele>-1.79</ele>
        <time>2018-01-14T11:33:03Z</time>
      </trkpt>
      <trkpt lat="51.32985" lon="3.24229">
        <ele>-1.79</ele>
        <time>2018-01-14T11:33:15Z</time>
      </trkpt>
      <trkpt lat="51.32973" lon="3.24235">
        <ele>-2.27</ele>
        <time>2018-01-14T11:33:29Z</time>
      </trkpt>
      <trkpt lat="51.32958" lon="3.24241">
        <ele>-1.79</ele>
        <time>2018-01-14T11:33:45Z</time>
      </trkpt>
      <trkpt lat="51.32956" lon="3.24243">
        <ele>-1.79</ele>
        <time>2018-01-14T11:33:46Z</time>
      </trkpt>
      <trkpt lat="51.32954" lon="3.24244">
        <ele>-1.79</ele>
        <time>2018-01-14T11:33:47Z</time>
      </trkpt>
      <trkpt lat="51.32952" lon="3.24247">
        <ele>-1.79</ele>
        <time>2018-01-14T11:33:48Z</time>
      </trkpt>
      <trkpt lat="51.3295" lon="3.24249">
        <ele>-1.79</ele>
        <time>2018-01-14T11:33:49Z</time>
      </trkpt>
      <trkpt lat="51.32949" lon="3.2425">
        <ele>-1.79</ele>
        <time>2018-01-14T11:33:50Z</time>
      </trkpt>
      <trkpt lat="51.32927" lon="3.24262">
        <ele>-1.79</ele>
        <time>2018-01-14T11:34:05Z</time>
      </trkpt>
      <trkpt lat="51.32912" lon="3.24272">
        <ele>-1.79</ele>
        <time>2018-01-14T11:34:19Z</time>
      </trkpt>
      <trkpt lat="51.32902" lon="3.24276">
        <ele>-1.79</ele>
        <time>2018-01-14T11:34:27Z</time>
      </trkpt>
      <trkpt lat="51.32901" lon="3.24276">
        <ele>-1.79</ele>
        <time>2018-01-14T11:34:28Z</time>
      </trkpt>
      <trkpt lat="51.329" lon="3.24277">
        <ele>-1.79</ele>
        <time>2018-01-14T11:34:29Z</time>
      </trkpt>
      <trkpt lat="51.32898" lon="3.24278">
        <ele>-1.79</ele>
        <time>2018-01-14T11:34:30Z</time>
      </trkpt>
      <trkpt lat="51.3288" lon="3.24285">
        <ele>-1.79</ele>
        <time>2018-01-14T11:34:45Z</time>
      </trkpt>
      <trkpt lat="51.32859" lon="3.2429">
        <ele>-1.79</ele>
        <time>2018-01-14T11:35:01Z</time>
      </trkpt>
      <trkpt lat="51.32842" lon="3.24294">
        <ele>-1.79</ele>
        <time>2018-01-14T11:35:14Z</time>
      </trkpt>
      <trkpt lat="51.32834" lon="3.24293">
        <ele>-1.79</ele>
        <time>2018-01-14T11:35:20Z</time>
      </trkpt>
      <trkpt lat="51.3282" lon="3.24287">
        <ele>-1.79</ele>
        <time>2018-01-14T11:35:32Z</time>
      </trkpt>
      <trkpt lat="51.32815" lon="3.24283">
        <ele>-1.79</ele>
        <time>2018-01-14T11:35:36Z</time>
      </trkpt>
      <trkpt lat="51.32814" lon="3.24282">
        <ele>-1.79</ele>
        <time>2018-01-14T11:35:37Z</time>
      </trkpt>
      <trkpt lat="51.32803" lon="3.24259">
        <ele>-1.79</ele>
        <time>2018-01-14T11:35:51Z</time>
      </trkpt>
      <trkpt lat="51.32802" lon="3.24257">
        <ele>-1.79</ele>
        <time>2018-01-14T11:35:52Z</time>
      </trkpt>
      <trkpt lat="51.32797" lon="3.24242">
        <ele>-1.79</ele>
        <time>2018-01-14T11:36:01Z</time>
      </trkpt>
      <trkpt lat="51.32786" lon="3.24218">
        <ele>-1.79</ele>
        <time>2018-01-14T11:36:15Z</time>
      </trkpt>
      <trkpt lat="51.32777" lon="3.24198">
        <ele>-1.79</ele>
        <time>2018-01-14T11:36:26Z</time>
      </trkpt>
      <trkpt lat="51.32776" lon="3.24196">
        <ele>-1.79</ele>
        <time>2018-01-14T11:36:27Z</time>
      </trkpt>
      <trkpt lat="51.32776" lon="3.24194">
        <ele>-1.79</ele>
        <time>2018-01-14T11:36:28Z</time>
      </trkpt>
      <trkpt lat="51.32775" lon="3.24192">
        <ele>-1.79</ele>
        <time>2018-01-14T11:36:29Z</time>
      </trkpt>
      <trkpt lat="51.32775" lon="3.24187">
        <ele>-1.79</ele>
        <time>2018-01-14T11:36:31Z</time>
      </trkpt>
      <trkpt lat="51.32773" lon="3.24183">
        <ele>-1.79</ele>
        <time>2018-01-14T11:36:34Z</time>
      </trkpt>
      <trkpt lat="51.32772" lon="3.24181">
        <ele>-1.79</ele>
        <time>2018-01-14T11:36:35Z</time>
      </trkpt>
      <trkpt lat="51.3277" lon="3.24176">
        <ele>-1.79</ele>
        <time>2018-01-14T11:36:38Z</time>
      </trkpt>
      <trkpt lat="51.32768" lon="3.24171">
        <ele>-1.79</ele>
        <time>2018-01-14T11:36:41Z</time>
      </trkpt>
      <trkpt lat="51.32759" lon="3.24137">
        <ele>-1.79</ele>
        <time>2018-01-14T11:36:59Z</time>
      </trkpt>
      <trkpt lat="51.32753" lon="3.24119">
        <ele>-3.23</ele>
        <time>2018-01-14T11:37:09Z</time>
      </trkpt>
      <trkpt lat="51.3275" lon="3.24109">
        <ele>-2.75</ele>
        <time>2018-01-14T11:37:14Z</time>
      </trkpt>
      <trkpt lat="51.3275" lon="3.24106">
        <ele>-3.23</ele>
        <time>2018-01-14T11:37:15Z</time>
      </trkpt>
      <trkpt lat="51.32746" lon="3.24092">
        <ele>-3.23</ele>
        <time>2018-01-14T11:37:23Z</time>
      </trkpt>
      <trkpt lat="51.32736" lon="3.24085">
        <ele>-3.23</ele>
        <time>2018-01-14T11:37:32Z</time>
      </trkpt>
      <trkpt lat="51.32736" lon="3.24083">
        <ele>-3.23</ele>
        <time>2018-01-14T11:37:33Z</time>
      </trkpt>
      <trkpt lat="51.32736" lon="3.24081">
        <ele>-3.23</ele>
        <time>2018-01-14T11:37:34Z</time>
      </trkpt>
      <trkpt lat="51.32737" lon="3.24079">
        <ele>-3.23</ele>
        <time>2018-01-14T11:37:35Z</time>
      </trkpt>
      <trkpt lat="51.32737" lon="3.24077">
        <ele>-3.23</ele>
        <time>2018-01-14T11:37:36Z</time>
      </trkpt>
      <trkpt lat="51.32742" lon="3.24048">
        <ele>-3.23</ele>
        <time>2018-01-14T11:37:51Z</time>
      </trkpt>
      <trkpt lat="51.32747" lon="3.24023">
        <ele>-3.23</ele>
        <time>2018-01-14T11:38:05Z</time>
      </trkpt>
      <trkpt lat="51.32753" lon="3.23988">
        <ele>-3.23</ele>
        <time>2018-01-14T11:38:22Z</time>
      </trkpt>
      <trkpt lat="51.32756" lon="3.2395">
        <ele>-3.23</ele>
        <time>2018-01-14T11:38:40Z</time>
      </trkpt>
      <trkpt lat="51.32761" lon="3.23921">
        <ele>-3.23</ele>
        <time>2018-01-14T11:38:55Z</time>
      </trkpt>
      <trkpt lat="51.32766" lon="3.23884">
        <ele>-3.23</ele>
        <time>2018-01-14T11:39:13Z</time>
      </trkpt>
      <trkpt lat="51.32773" lon="3.2385">
        <ele>-3.23</ele>
        <time>2018-01-14T11:39:30Z</time>
      </trkpt>
      <trkpt lat="51.32779" lon="3.23824">
        <ele>-3.23</ele>
        <time>2018-01-14T11:39:44Z</time>
      </trkpt>
      <trkpt lat="51.32778" lon="3.23821">
        <ele>-3.23</ele>
        <time>2018-01-14T11:39:47Z</time>
      </trkpt>
      <trkpt lat="51.32752" lon="3.23828">
        <ele>-3.23</ele>
        <time>2018-01-14T11:40:06Z</time>
      </trkpt>
      <trkpt lat="51.32735" lon="3.23835">
        <ele>-3.23</ele>
        <time>2018-01-14T11:40:22Z</time>
      </trkpt>
      <trkpt lat="51.32729" lon="3.23833">
        <ele>-3.23</ele>
        <time>2018-01-14T11:40:29Z</time>
      </trkpt>
      <trkpt lat="51.32712" lon="3.2382">
        <ele>-3.23</ele>
        <time>2018-01-14T11:40:45Z</time>
      </trkpt>
      <trkpt lat="51.32687" lon="3.23832">
        <ele>-3.23</ele>
        <time>2018-01-14T11:41:04Z</time>
      </trkpt>
      <trkpt lat="51.32667" lon="3.2384">
        <ele>-3.23</ele>
        <time>2018-01-14T11:41:21Z</time>
      </trkpt>
      <trkpt lat="51.32645" lon="3.23848">
        <ele>-3.23</ele>
        <time>2018-01-14T11:41:38Z</time>
      </trkpt>
      <trkpt lat="51.32627" lon="3.23859">
        <ele>-3.23</ele>
        <time>2018-01-14T11:41:53Z</time>
      </trkpt>
      <trkpt lat="51.32624" lon="3.2386">
        <ele>-3.23</ele>
        <time>2018-01-14T11:41:56Z</time>
      </trkpt>
      <trkpt lat="51.32613" lon="3.23853">
        <ele>-3.23</ele>
        <time>2018-01-14T11:42:06Z</time>
      </trkpt>
      <trkpt lat="51.32604" lon="3.23856">
        <ele>-3.23</ele>
        <time>2018-01-14T11:42:12Z</time>
      </trkpt>
      <trkpt lat="51.32602" lon="3.23857">
        <ele>-2.27</ele>
        <time>2018-01-14T11:42:14Z</time>
      </trkpt>
      <trkpt lat="51.3258" lon="3.23865">
        <ele>-2.27</ele>
        <time>2018-01-14T11:42:32Z</time>
      </trkpt>
      <trkpt lat="51.32577" lon="3.23864">
        <ele>-2.27</ele>
        <time>2018-01-14T11:42:35Z</time>
      </trkpt>
      <trkpt lat="51.32577" lon="3.23859">
        <ele>-3.23</ele>
        <time>2018-01-14T11:42:37Z</time>
      </trkpt>
      <trkpt lat="51.32579" lon="3.23848">
        <ele>-3.23</ele>
        <time>2018-01-14T11:42:42Z</time>
      </trkpt>
      <trkpt lat="51.32578" lon="3.23826">
        <ele>-3.23</ele>
        <time>2018-01-14T11:42:58Z</time>
      </trkpt>
      <trkpt lat="51.32579" lon="3.23801">
        <ele>-3.23</ele>
        <time>2018-01-14T11:43:12Z</time>
      </trkpt>
      <trkpt lat="51.32575" lon="3.23763">
        <ele>-3.23</ele>
        <time>2018-01-14T11:43:31Z</time>
      </trkpt>
      <trkpt lat="51.32571" lon="3.23721">
        <ele>-3.23</ele>
        <time>2018-01-14T11:43:52Z</time>
      </trkpt>
      <trkpt lat="51.32568" lon="3.23672">
        <ele>-3.23</ele>
        <time>2018-01-14T11:44:15Z</time>
      </trkpt>
      <trkpt lat="51.32562" lon="3.2363">
        <ele>-3.23</ele>
        <time>2018-01-14T11:44:37Z</time>
      </trkpt>
      <trkpt lat="51.32556" lon="3.23591">
        <ele>-3.23</ele>
        <time>2018-01-14T11:44:57Z</time>
      </trkpt>
      <trkpt lat="51.32559" lon="3.23549">
        <ele>-3.71</ele>
        <time>2018-01-14T11:45:17Z</time>
      </trkpt>
      <trkpt lat="51.32562" lon="3.23509">
        <ele>-3.71</ele>
        <time>2018-01-14T11:45:36Z</time>
      </trkpt>
      <trkpt lat="51.32564" lon="3.23469">
        <ele>-3.71</ele>
        <time>2018-01-14T11:45:55Z</time>
      </trkpt>
      <trkpt lat="51.32564" lon="3.23429">
        <ele>-3.71</ele>
        <time>2018-01-14T11:46:14Z</time>
      </trkpt>
      <trkpt lat="51.32566" lon="3.23391">
        <ele>-3.71</ele>
        <time>2018-01-14T11:46:33Z</time>
      </trkpt>
      <trkpt lat="51.32568" lon="3.23354">
        <ele>-3.71</ele>
        <time>2018-01-14T11:46:51Z</time>
      </trkpt>
      <trkpt lat="51.3257" lon="3.23315">
        <ele>-3.71</ele>
        <time>2018-01-14T11:47:10Z</time>
      </trkpt>
      <trkpt lat="51.32572" lon="3.23273">
        <ele>-3.71</ele>
        <time>2018-01-14T11:47:30Z</time>
      </trkpt>
      <trkpt lat="51.32573" lon="3.2323">
        <ele>-3.71</ele>
        <time>2018-01-14T11:47:51Z</time>
      </trkpt>
      <trkpt lat="51.32573" lon="3.2321">
        <ele>-3.71</ele>
        <time>2018-01-14T11:48:01Z</time>
      </trkpt>
      <trkpt lat="51.32571" lon="3.23168">
        <ele>-3.71</ele>
        <time>2018-01-14T11:48:21Z</time>
      </trkpt>
      <trkpt lat="51.32572" lon="3.23135">
        <ele>-3.71</ele>
        <time>2018-01-14T11:48:38Z</time>
      </trkpt>
      <trkpt lat="51.32574" lon="3.23105">
        <ele>-3.71</ele>
        <time>2018-01-14T11:48:53Z</time>
      </trkpt>
      <trkpt lat="51.32579" lon="3.23061">
        <ele>-3.71</ele>
        <time>2018-01-14T11:49:14Z</time>
      </trkpt>
      <trkpt lat="51.32581" lon="3.2302">
        <ele>-3.71</ele>
        <time>2018-01-14T11:49:34Z</time>
      </trkpt>
      <trkpt lat="51.32579" lon="3.22984">
        <ele>-3.71</ele>
        <time>2018-01-14T11:49:52Z</time>
      </trkpt>
      <trkpt lat="51.32576" lon="3.22962">
        <ele>-3.71</ele>
        <time>2018-01-14T11:50:03Z</time>
      </trkpt>
      <trkpt lat="51.32581" lon="3.22944">
        <ele>-3.71</ele>
        <time>2018-01-14T11:50:13Z</time>
      </trkpt>
      <trkpt lat="51.32592" lon="3.22933">
        <ele>-2.75</ele>
        <time>2018-01-14T11:50:28Z</time>
      </trkpt>
      <trkpt lat="51.32602" lon="3.22919">
        <ele>-2.75</ele>
        <time>2018-01-14T11:50:41Z</time>
      </trkpt>
      <trkpt lat="51.32618" lon="3.22903">
        <ele>-2.27</ele>
        <time>2018-01-14T11:50:56Z</time>
      </trkpt>
      <trkpt lat="51.32638" lon="3.22885">
        <ele>-2.27</ele>
        <time>2018-01-14T11:51:13Z</time>
      </trkpt>
      <trkpt lat="51.32656" lon="3.22879">
        <ele>-3.71</ele>
        <time>2018-01-14T11:51:28Z</time>
      </trkpt>
      <trkpt lat="51.32663" lon="3.22871">
        <ele>-4.19</ele>
        <time>2018-01-14T11:51:35Z</time>
      </trkpt>
      <trkpt lat="51.3269" lon="3.22807">
        <ele>-2.75</ele>
        <time>2018-01-14T11:52:14Z</time>
      </trkpt>
      <trkpt lat="51.32713" lon="3.22794">
        <ele>-1.79</ele>
        <time>2018-01-14T11:52:31Z</time>
      </trkpt>
      <trkpt lat="51.32732" lon="3.22774">
        <ele>-1.3</ele>
        <time>2018-01-14T11:52:51Z</time>
      </trkpt>
      <trkpt lat="51.32754" lon="3.22751">
        <ele>-1.3</ele>
        <time>2018-01-14T11:53:10Z</time>
      </trkpt>
      <trkpt lat="51.32775" lon="3.22727">
        <ele>-1.3</ele>
        <time>2018-01-14T11:53:29Z</time>
      </trkpt>
      <trkpt lat="51.32794" lon="3.22706">
        <ele>-0.82</ele>
        <time>2018-01-14T11:53:47Z</time>
      </trkpt>
      <trkpt lat="51.32811" lon="3.22686">
        <ele>-0.82</ele>
        <time>2018-01-14T11:54:03Z</time>
      </trkpt>
      <trkpt lat="51.32831" lon="3.22665">
        <ele>-0.82</ele>
        <time>2018-01-14T11:54:23Z</time>
      </trkpt>
      <trkpt lat="51.3285" lon="3.22644">
        <ele>-0.82</ele>
        <time>2018-01-14T11:54:41Z</time>
      </trkpt>
      <trkpt lat="51.32874" lon="3.22618">
        <ele>-0.82</ele>
        <time>2018-01-14T11:55:01Z</time>
      </trkpt>
      <trkpt lat="51.32893" lon="3.22597">
        <ele>-0.82</ele>
        <time>2018-01-14T11:55:18Z</time>
      </trkpt>
      <trkpt lat="51.32914" lon="3.22574">
        <ele>-0.34</ele>
        <time>2018-01-14T11:55:38Z</time>
      </trkpt>
      <trkpt lat="51.32936" lon="3.2255">
        <ele>-0.34</ele>
        <time>2018-01-14T11:55:59Z</time>
      </trkpt>
      <trkpt lat="51.32951" lon="3.22535">
        <ele>-0.34</ele>
        <time>2018-01-14T11:56:13Z</time>
      </trkpt>
      <trkpt lat="51.32971" lon="3.22513">
        <ele>-0.34</ele>
        <time>2018-01-14T11:56:31Z</time>
      </trkpt>
      <trkpt lat="51.32994" lon="3.22487">
        <ele>-0.34</ele>
        <time>2018-01-14T11:56:53Z</time>
      </trkpt>
      <trkpt lat="51.33012" lon="3.2247">
        <ele>-0.34</ele>
        <time>2018-01-14T11:57:09Z</time>
      </trkpt>
      <trkpt lat="51.33037" lon="3.22447">
        <ele>-0.34</ele>
        <time>2018-01-14T11:57:29Z</time>
      </trkpt>
      <trkpt lat="51.33056" lon="3.22438">
        <ele>-0.34</ele>
        <time>2018-01-14T11:57:44Z</time>
      </trkpt>
      <trkpt lat="51.3307" lon="3.22434">
        <ele>-0.34</ele>
        <time>2018-01-14T11:57:54Z</time>
      </trkpt>
      <trkpt lat="51.33088" lon="3.22464">
        <ele>0.14</ele>
        <time>2018-01-14T11:58:13Z</time>
      </trkpt>
      <trkpt lat="51.33098" lon="3.22496">
        <ele>1.1</ele>
        <time>2018-01-14T11:58:30Z</time>
      </trkpt>
      <trkpt lat="51.33108" lon="3.22529">
        <ele>2.54</ele>
        <time>2018-01-14T11:58:48Z</time>
      </trkpt>
      <trkpt lat="51.33118" lon="3.22577">
        <ele>3.5</ele>
        <time>2018-01-14T11:59:11Z</time>
      </trkpt>
      <trkpt lat="51.33125" lon="3.22611">
        <ele>4.46</ele>
        <time>2018-01-14T11:59:29Z</time>
      </trkpt>
      <trkpt lat="51.33133" lon="3.22641">
        <ele>5.42</ele>
        <time>2018-01-14T11:59:45Z</time>
      </trkpt>
      <trkpt lat="51.33141" lon="3.2268">
        <ele>5.42</ele>
        <time>2018-01-14T12:00:05Z</time>
      </trkpt>
      <trkpt lat="51.33148" lon="3.22714">
        <ele>5.42</ele>
        <time>2018-01-14T12:00:21Z</time>
      </trkpt>
      <trkpt lat="51.33156" lon="3.22745">
        <ele>5.91</ele>
        <time>2018-01-14T12:00:37Z</time>
      </trkpt>
      <trkpt lat="51.33163" lon="3.22778">
        <ele>5.91</ele>
        <time>2018-01-14T12:00:55Z</time>
      </trkpt>
      <trkpt lat="51.3317" lon="3.2281">
        <ele>5.91</ele>
        <time>2018-01-14T12:01:11Z</time>
      </trkpt>
      <trkpt lat="51.33171" lon="3.22811">
        <ele>5.91</ele>
        <time>2018-01-14T12:01:12Z</time>
      </trkpt>
      <trkpt lat="51.33174" lon="3.22821">
        <ele>5.91</ele>
        <time>2018-01-14T12:01:17Z</time>
      </trkpt>
      <trkpt lat="51.33186" lon="3.22861">
        <ele>5.91</ele>
        <time>2018-01-14T12:01:38Z</time>
      </trkpt>
      <trkpt lat="51.33191" lon="3.22893">
        <ele>5.91</ele>
        <time>2018-01-14T12:01:54Z</time>
      </trkpt>
      <trkpt lat="51.33208" lon="3.22912">
        <ele>4.94</ele>
        <time>2018-01-14T12:02:11Z</time>
      </trkpt>
      <trkpt lat="51.33226" lon="3.22905">
        <ele>3.98</ele>
        <time>2018-01-14T12:02:26Z</time>
      </trkpt>
      <trkpt lat="51.3323" lon="3.22903">
        <ele>3.5</ele>
        <time>2018-01-14T12:02:30Z</time>
      </trkpt>
      <trkpt lat="51.33233" lon="3.22901">
        <ele>3.5</ele>
        <time>2018-01-14T12:02:33Z</time>
      </trkpt>
      <trkpt lat="51.3324" lon="3.22906">
        <ele>3.5</ele>
        <time>2018-01-14T12:02:39Z</time>
      </trkpt>
      <trkpt lat="51.33249" lon="3.22933">
        <ele>3.5</ele>
        <time>2018-01-14T12:02:55Z</time>
      </trkpt>
      <trkpt lat="51.3326" lon="3.22977">
        <ele>3.5</ele>
        <time>2018-01-14T12:03:17Z</time>
      </trkpt>
      <trkpt lat="51.3327" lon="3.23013">
        <ele>3.5</ele>
        <time>2018-01-14T12:03:36Z</time>
      </trkpt>
      <trkpt lat="51.33275" lon="3.23047">
        <ele>3.5</ele>
        <time>2018-01-14T12:03:55Z</time>
      </trkpt>
      <trkpt lat="51.33283" lon="3.23051">
        <ele>3.5</ele>
        <time>2018-01-14T12:04:05Z</time>
      </trkpt>
      <trkpt lat="51.33297" lon="3.23062">
        <ele>3.5</ele>
        <time>2018-01-14T12:04:18Z</time>
      </trkpt>
      <trkpt lat="51.33312" lon="3.23071">
        <ele>3.5</ele>
        <time>2018-01-14T12:04:32Z</time>
      </trkpt>
      <trkpt lat="51.33333" lon="3.23075">
        <ele>3.5</ele>
        <time>2018-01-14T12:04:48Z</time>
      </trkpt>
      <trkpt lat="51.33338" lon="3.23078">
        <ele>3.5</ele>
        <time>2018-01-14T12:04:53Z</time>
      </trkpt>
      <trkpt lat="51.33361" lon="3.23082">
        <ele>3.5</ele>
        <time>2018-01-14T12:05:09Z</time>
      </trkpt>
      <trkpt lat="51.33363" lon="3.23083">
        <ele>3.5</ele>
        <time>2018-01-14T12:05:10Z</time>
      </trkpt>
      <trkpt lat="51.33387" lon="3.23081">
        <ele>3.5</ele>
        <time>2018-01-14T12:05:28Z</time>
      </trkpt>
      <trkpt lat="51.33401" lon="3.23062">
        <ele>3.5</ele>
        <time>2018-01-14T12:05:42Z</time>
      </trkpt>
      <trkpt lat="51.33417" lon="3.23029">
        <ele>3.5</ele>
        <time>2018-01-14T12:06:01Z</time>
      </trkpt>
      <trkpt lat="51.33432" lon="3.23003">
        <ele>3.5</ele>
        <time>2018-01-14T12:06:18Z</time>
      </trkpt>
      <trkpt lat="51.33433" lon="3.23002">
        <ele>3.5</ele>
        <time>2018-01-14T12:06:19Z</time>
      </trkpt>
      <trkpt lat="51.33454" lon="3.22995">
        <ele>3.5</ele>
        <time>2018-01-14T12:06:35Z</time>
      </trkpt>
      <trkpt lat="51.33477" lon="3.22995">
        <ele>2.54</ele>
        <time>2018-01-14T12:06:53Z</time>
      </trkpt>
      <trkpt lat="51.33491" lon="3.23008">
        <ele>2.54</ele>
        <time>2018-01-14T12:07:08Z</time>
      </trkpt>
      <trkpt lat="51.33513" lon="3.23001">
        <ele>2.54</ele>
        <time>2018-01-14T12:07:24Z</time>
      </trkpt>
      <trkpt lat="51.33536" lon="3.22985">
        <ele>2.54</ele>
        <time>2018-01-14T12:07:42Z</time>
      </trkpt>
      <trkpt lat="51.33553" lon="3.22975">
        <ele>2.54</ele>
        <time>2018-01-14T12:07:58Z</time>
      </trkpt>
      <trkpt lat="51.33571" lon="3.22954">
        <ele>2.54</ele>
        <time>2018-01-14T12:08:15Z</time>
      </trkpt>
      <trkpt lat="51.33585" lon="3.22936">
        <ele>2.54</ele>
        <time>2018-01-14T12:08:30Z</time>
      </trkpt>
      <trkpt lat="51.33589" lon="3.22936">
        <ele>2.54</ele>
        <time>2018-01-14T12:08:34Z</time>
      </trkpt>
      <trkpt lat="51.33606" lon="3.22937">
        <ele>2.54</ele>
        <time>2018-01-14T12:08:48Z</time>
      </trkpt>
      <trkpt lat="51.33622" lon="3.22934">
        <ele>2.54</ele>
        <time>2018-01-14T12:08:59Z</time>
      </trkpt>
      <trkpt lat="51.33642" lon="3.2292">
        <ele>2.54</ele>
        <time>2018-01-14T12:09:15Z</time>
      </trkpt>
      <trkpt lat="51.33656" lon="3.2291">
        <ele>2.54</ele>
        <time>2018-01-14T12:09:28Z</time>
      </trkpt>
      <trkpt lat="51.3367" lon="3.22902">
        <ele>3.98</ele>
        <time>2018-01-14T12:09:39Z</time>
      </trkpt>
      <trkpt lat="51.33687" lon="3.22893">
        <ele>3.98</ele>
        <time>2018-01-14T12:09:54Z</time>
      </trkpt>
      <trkpt lat="51.33703" lon="3.22874">
        <ele>3.98</ele>
        <time>2018-01-14T12:10:09Z</time>
      </trkpt>
      <trkpt lat="51.33717" lon="3.22839">
        <ele>3.98</ele>
        <time>2018-01-14T12:10:29Z</time>
      </trkpt>
      <trkpt lat="51.33735" lon="3.22834">
        <ele>3.98</ele>
        <time>2018-01-14T12:10:43Z</time>
      </trkpt>
      <trkpt lat="51.33749" lon="3.22837">
        <ele>3.98</ele>
        <time>2018-01-14T12:10:58Z</time>
      </trkpt>
      <trkpt lat="51.33751" lon="3.22839">
        <ele>3.98</ele>
        <time>2018-01-14T12:11:01Z</time>
      </trkpt>
      <trkpt lat="51.33753" lon="3.22844">
        <ele>3.98</ele>
        <time>2018-01-14T12:11:05Z</time>
      </trkpt>
      <trkpt lat="51.33767" lon="3.22856">
        <ele>4.94</ele>
        <time>2018-01-14T12:11:19Z</time>
      </trkpt>
      <trkpt lat="51.33768" lon="3.22858">
        <ele>4.94</ele>
        <time>2018-01-14T12:11:21Z</time>
      </trkpt>
      <trkpt lat="51.33778" lon="3.22854">
        <ele>6.39</ele>
        <time>2018-01-14T12:11:35Z</time>
      </trkpt>
      <trkpt lat="51.33782" lon="3.2285">
        <ele>6.39</ele>
        <time>2018-01-14T12:11:38Z</time>
      </trkpt>
      <trkpt lat="51.33792" lon="3.22837">
        <ele>6.39</ele>
        <time>2018-01-14T12:11:48Z</time>
      </trkpt>
      <trkpt lat="51.33812" lon="3.22811">
        <ele>5.91</ele>
        <time>2018-01-14T12:12:07Z</time>
      </trkpt>
      <trkpt lat="51.33819" lon="3.22796">
        <ele>6.87</ele>
        <time>2018-01-14T12:12:17Z</time>
      </trkpt>
      <trkpt lat="51.33823" lon="3.22779">
        <ele>6.39</ele>
        <time>2018-01-14T12:12:25Z</time>
      </trkpt>
      <trkpt lat="51.33835" lon="3.22761">
        <ele>6.39</ele>
        <time>2018-01-14T12:12:38Z</time>
      </trkpt>
      <trkpt lat="51.33842" lon="3.22753">
        <ele>5.42</ele>
        <time>2018-01-14T12:12:44Z</time>
      </trkpt>
      <trkpt lat="51.33855" lon="3.22723">
        <ele>5.42</ele>
        <time>2018-01-14T12:13:02Z</time>
      </trkpt>
      <trkpt lat="51.33851" lon="3.22691">
        <ele>5.42</ele>
        <time>2018-01-14T12:13:17Z</time>
      </trkpt>
      <trkpt lat="51.3385" lon="3.22658">
        <ele>4.94</ele>
        <time>2018-01-14T12:13:34Z</time>
      </trkpt>
      <trkpt lat="51.33849" lon="3.22647">
        <ele>4.46</ele>
        <time>2018-01-14T12:13:39Z</time>
      </trkpt>
      <trkpt lat="51.33849" lon="3.22636">
        <ele>3.5</ele>
        <time>2018-01-14T12:13:45Z</time>
      </trkpt>
      <trkpt lat="51.33848" lon="3.22615">
        <ele>3.5</ele>
        <time>2018-01-14T12:13:57Z</time>
      </trkpt>
      <trkpt lat="51.33857" lon="3.22613">
        <ele>3.5</ele>
        <time>2018-01-14T12:14:04Z</time>
      </trkpt>
      <trkpt lat="51.33859" lon="3.22626">
        <ele>3.5</ele>
        <time>2018-01-14T12:14:12Z</time>
      </trkpt>
      <trkpt lat="51.33865" lon="3.22657">
        <ele>3.5</ele>
        <time>2018-01-14T12:14:27Z</time>
      </trkpt>
      <trkpt lat="51.33871" lon="3.22693">
        <ele>3.02</ele>
        <time>2018-01-14T12:14:44Z</time>
      </trkpt>
      <trkpt lat="51.33876" lon="3.22733">
        <ele>3.02</ele>
        <time>2018-01-14T12:15:02Z</time>
      </trkpt>
      <trkpt lat="51.33882" lon="3.22762">
        <ele>3.02</ele>
        <time>2018-01-14T12:15:18Z</time>
      </trkpt>
      <trkpt lat="51.33882" lon="3.22781">
        <ele>3.02</ele>
        <time>2018-01-14T12:15:27Z</time>
      </trkpt>
      <trkpt lat="51.33883" lon="3.22793">
        <ele>3.02</ele>
        <time>2018-01-14T12:15:34Z</time>
      </trkpt>
      <trkpt lat="51.33882" lon="3.22801">
        <ele>3.02</ele>
        <time>2018-01-14T12:15:38Z</time>
      </trkpt>
      <trkpt lat="51.33884" lon="3.2282">
        <ele>3.02</ele>
        <time>2018-01-14T12:15:48Z</time>
      </trkpt>
      <trkpt lat="51.33886" lon="3.22835">
        <ele>3.02</ele>
        <time>2018-01-14T12:15:55Z</time>
      </trkpt>
      <trkpt lat="51.33877" lon="3.22856">
        <ele>2.06</ele>
        <time>2018-01-14T12:16:08Z</time>
      </trkpt>
      <trkpt lat="51.33864" lon="3.22875">
        <ele>0.62</ele>
        <time>2018-01-14T12:16:22Z</time>
      </trkpt>
      <trkpt lat="51.33855" lon="3.22887">
        <ele>0.14</ele>
        <time>2018-01-14T12:16:30Z</time>
      </trkpt>
      <trkpt lat="51.33846" lon="3.2291">
        <ele>-0.82</ele>
        <time>2018-01-14T12:16:43Z</time>
      </trkpt>
      <trkpt lat="51.33826" lon="3.22938">
        <ele>-0.82</ele>
        <time>2018-01-14T12:17:00Z</time>
      </trkpt>
      <trkpt lat="51.33809" lon="3.22961">
        <ele>-0.82</ele>
        <time>2018-01-14T12:17:16Z</time>
      </trkpt>
      <trkpt lat="51.3379" lon="3.22986">
        <ele>-0.82</ele>
        <time>2018-01-14T12:17:34Z</time>
      </trkpt>
      <trkpt lat="51.33773" lon="3.23012">
        <ele>-0.82</ele>
        <time>2018-01-14T12:17:53Z</time>
      </trkpt>
      <trkpt lat="51.33764" lon="3.2303">
        <ele>-0.82</ele>
        <time>2018-01-14T12:18:06Z</time>
      </trkpt>
      <trkpt lat="51.33761" lon="3.23039">
        <ele>-0.82</ele>
        <time>2018-01-14T12:18:12Z</time>
      </trkpt>
      <trkpt lat="51.33754" lon="3.23063">
        <ele>-0.82</ele>
        <time>2018-01-14T12:18:27Z</time>
      </trkpt>
      <trkpt lat="51.33751" lon="3.23071">
        <ele>-1.3</ele>
        <time>2018-01-14T12:18:42Z</time>
      </trkpt>
      <trkpt lat="51.3375" lon="3.23085">
        <ele>-1.3</ele>
        <time>2018-01-14T12:18:55Z</time>
      </trkpt>
      <trkpt lat="51.33747" lon="3.23093">
        <ele>-1.3</ele>
        <time>2018-01-14T12:19:08Z</time>
      </trkpt>
      <trkpt lat="51.33745" lon="3.23109">
        <ele>-1.3</ele>
        <time>2018-01-14T12:19:21Z</time>
      </trkpt>
      <trkpt lat="51.33748" lon="3.23138">
        <ele>-1.79</ele>
        <time>2018-01-14T12:19:35Z</time>
      </trkpt>
      <trkpt lat="51.33749" lon="3.23165">
        <ele>-1.79</ele>
        <time>2018-01-14T12:19:51Z</time>
      </trkpt>
      <trkpt lat="51.33733" lon="3.23195">
        <ele>-1.79</ele>
        <time>2018-01-14T12:20:10Z</time>
      </trkpt>
      <trkpt lat="51.33716" lon="3.23206">
        <ele>-1.79</ele>
        <time>2018-01-14T12:20:25Z</time>
      </trkpt>
      <trkpt lat="51.33711" lon="3.23211">
        <ele>-1.79</ele>
        <time>2018-01-14T12:20:30Z</time>
      </trkpt>
      <trkpt lat="51.3369" lon="3.2323">
        <ele>-1.79</ele>
        <time>2018-01-14T12:20:51Z</time>
      </trkpt>
      <trkpt lat="51.33674" lon="3.23241">
        <ele>-1.79</ele>
        <time>2018-01-14T12:21:05Z</time>
      </trkpt>
      <trkpt lat="51.33649" lon="3.23258">
        <ele>-1.79</ele>
        <time>2018-01-14T12:21:25Z</time>
      </trkpt>
      <trkpt lat="51.33629" lon="3.23269">
        <ele>-2.27</ele>
        <time>2018-01-14T12:21:41Z</time>
      </trkpt>
      <trkpt lat="51.33608" lon="3.23282">
        <ele>-0.82</ele>
        <time>2018-01-14T12:21:58Z</time>
      </trkpt>
      <trkpt lat="51.33583" lon="3.23304">
        <ele>-0.82</ele>
        <time>2018-01-14T12:22:18Z</time>
      </trkpt>
      <trkpt lat="51.33568" lon="3.23316">
        <ele>-0.82</ele>
        <time>2018-01-14T12:22:34Z</time>
      </trkpt>
      <trkpt lat="51.33555" lon="3.23327">
        <ele>-0.82</ele>
        <time>2018-01-14T12:22:45Z</time>
      </trkpt>
      <trkpt lat="51.33554" lon="3.23338">
        <ele>-0.82</ele>
        <time>2018-01-14T12:22:51Z</time>
      </trkpt>
      <trkpt lat="51.33565" lon="3.23374">
        <ele>-1.3</ele>
        <time>2018-01-14T12:23:10Z</time>
      </trkpt>
      <trkpt lat="51.33567" lon="3.23397">
        <ele>-1.3</ele>
        <time>2018-01-14T12:23:23Z</time>
      </trkpt>
      <trkpt lat="51.33576" lon="3.23427">
        <ele>-1.3</ele>
        <time>2018-01-14T12:23:39Z</time>
      </trkpt>
      <trkpt lat="51.33582" lon="3.23447">
        <ele>-1.3</ele>
        <time>2018-01-14T12:23:52Z</time>
      </trkpt>
      <trkpt lat="51.33587" lon="3.2346">
        <ele>-1.3</ele>
        <time>2018-01-14T12:24:00Z</time>
      </trkpt>
      <trkpt lat="51.33586" lon="3.23468">
        <ele>-0.82</ele>
        <time>2018-01-14T12:24:04Z</time>
      </trkpt>
      <trkpt lat="51.33587" lon="3.23482">
        <ele>-0.82</ele>
        <time>2018-01-14T12:24:12Z</time>
      </trkpt>
      <trkpt lat="51.33595" lon="3.23507">
        <ele>-0.82</ele>
        <time>2018-01-14T12:24:27Z</time>
      </trkpt>
      <trkpt lat="51.33602" lon="3.23533">
        <ele>-0.82</ele>
        <time>2018-01-14T12:24:43Z</time>
      </trkpt>
      <trkpt lat="51.33609" lon="3.23559">
        <ele>-0.82</ele>
        <time>2018-01-14T12:24:56Z</time>
      </trkpt>
      <trkpt lat="51.33618" lon="3.2359">
        <ele>-0.34</ele>
        <time>2018-01-14T12:25:13Z</time>
      </trkpt>
      <trkpt lat="51.33621" lon="3.23602">
        <ele>-0.34</ele>
        <time>2018-01-14T12:25:19Z</time>
      </trkpt>
      <trkpt lat="51.33631" lon="3.23629">
        <ele>-0.34</ele>
        <time>2018-01-14T12:25:35Z</time>
      </trkpt>
      <trkpt lat="51.33632" lon="3.23632">
        <ele>-0.34</ele>
        <time>2018-01-14T12:25:37Z</time>
      </trkpt>
      <trkpt lat="51.33636" lon="3.2364">
        <ele>-0.34</ele>
        <time>2018-01-14T12:25:43Z</time>
      </trkpt>
      <trkpt lat="51.33645" lon="3.23657">
        <ele>-0.34</ele>
        <time>2018-01-14T12:25:57Z</time>
      </trkpt>
      <trkpt lat="51.33646" lon="3.23677">
        <ele>-0.34</ele>
        <time>2018-01-14T12:26:10Z</time>
      </trkpt>
      <trkpt lat="51.33647" lon="3.23688">
        <ele>-0.34</ele>
        <time>2018-01-14T12:26:15Z</time>
      </trkpt>
      <trkpt lat="51.3365" lon="3.23701">
        <ele>-0.34</ele>
        <time>2018-01-14T12:26:21Z</time>
      </trkpt>
      <trkpt lat="51.33663" lon="3.23727">
        <ele>-0.34</ele>
        <time>2018-01-14T12:26:37Z</time>
      </trkpt>
      <trkpt lat="51.33673" lon="3.23751">
        <ele>-0.34</ele>
        <time>2018-01-14T12:26:50Z</time>
      </trkpt>
      <trkpt lat="51.33675" lon="3.23754">
        <ele>-0.34</ele>
        <time>2018-01-14T12:26:52Z</time>
      </trkpt>
      <trkpt lat="51.33681" lon="3.2378">
        <ele>-0.34</ele>
        <time>2018-01-14T12:27:06Z</time>
      </trkpt>
      <trkpt lat="51.33684" lon="3.23786">
        <ele>-0.34</ele>
        <time>2018-01-14T12:27:09Z</time>
      </trkpt>
      <trkpt lat="51.33687" lon="3.23799">
        <ele>-0.34</ele>
        <time>2018-01-14T12:27:16Z</time>
      </trkpt>
      <trkpt lat="51.33697" lon="3.23815">
        <ele>-0.34</ele>
        <time>2018-01-14T12:27:29Z</time>
      </trkpt>
      <trkpt lat="51.33697" lon="3.23819">
        <ele>-0.34</ele>
        <time>2018-01-14T12:27:31Z</time>
      </trkpt>
      <trkpt lat="51.33696" lon="3.23831">
        <ele>-0.34</ele>
        <time>2018-01-14T12:27:35Z</time>
      </trkpt>
      <trkpt lat="51.33697" lon="3.23874">
        <ele>0.14</ele>
        <time>2018-01-14T12:27:52Z</time>
      </trkpt>
      <trkpt lat="51.33697" lon="3.23887">
        <ele>0.62</ele>
        <time>2018-01-14T12:27:58Z</time>
      </trkpt>
      <trkpt lat="51.33706" lon="3.23922">
        <ele>0.62</ele>
        <time>2018-01-14T12:28:16Z</time>
      </trkpt>
      <trkpt lat="51.33719" lon="3.2393">
        <ele>0.14</ele>
        <time>2018-01-14T12:28:29Z</time>
      </trkpt>
      <trkpt lat="51.33729" lon="3.23927">
        <ele>0.14</ele>
        <time>2018-01-14T12:28:38Z</time>
      </trkpt>
      <trkpt lat="51.33731" lon="3.23927">
        <ele>0.14</ele>
        <time>2018-01-14T12:28:40Z</time>
      </trkpt>
      <trkpt lat="51.33742" lon="3.23923">
        <ele>0.14</ele>
        <time>2018-01-14T12:28:47Z</time>
      </trkpt>
      <trkpt lat="51.33754" lon="3.23923">
        <ele>0.14</ele>
        <time>2018-01-14T12:28:56Z</time>
      </trkpt>
      <trkpt lat="51.33756" lon="3.23922">
        <ele>0.14</ele>
        <time>2018-01-14T12:28:58Z</time>
      </trkpt>
      <trkpt lat="51.33768" lon="3.23936">
        <ele>0.14</ele>
        <time>2018-01-14T12:29:10Z</time>
      </trkpt>
      <trkpt lat="51.33783" lon="3.23953">
        <ele>0.14</ele>
        <time>2018-01-14T12:29:26Z</time>
      </trkpt>
      <trkpt lat="51.33786" lon="3.23953">
        <ele>0.14</ele>
        <time>2018-01-14T12:29:29Z</time>
      </trkpt>
      <trkpt lat="51.33793" lon="3.23944">
        <ele>0.14</ele>
        <time>2018-01-14T12:29:36Z</time>
      </trkpt>
      <trkpt lat="51.33814" lon="3.2394">
        <ele>0.14</ele>
        <time>2018-01-14T12:29:51Z</time>
      </trkpt>
      <trkpt lat="51.33817" lon="3.23961">
        <ele>0.14</ele>
        <time>2018-01-14T12:30:06Z</time>
      </trkpt>
      <trkpt lat="51.33814" lon="3.23992">
        <ele>0.14</ele>
        <time>2018-01-14T12:30:21Z</time>
      </trkpt>
      <trkpt lat="51.33812" lon="3.24004">
        <ele>0.14</ele>
        <time>2018-01-14T12:30:28Z</time>
      </trkpt>
      <trkpt lat="51.33807" lon="3.24036">
        <ele>0.62</ele>
        <time>2018-01-14T12:30:44Z</time>
      </trkpt>
      <trkpt lat="51.33807" lon="3.24039">
        <ele>0.62</ele>
        <time>2018-01-14T12:31:02Z</time>
      </trkpt>
      <trkpt lat="51.33805" lon="3.24035">
        <ele>0.62</ele>
        <time>2018-01-14T12:31:24Z</time>
      </trkpt>
      <trkpt lat="51.33805" lon="3.24035">
        <ele>0.62</ele>
        <time>2018-01-14T12:31:31Z</time>
      </trkpt>
      <trkpt lat="51.3381" lon="3.24016">
        <ele>0.62</ele>
        <time>2018-01-14T12:31:45Z</time>
      </trkpt>
      <trkpt lat="51.33821" lon="3.23989">
        <ele>0.14</ele>
        <time>2018-01-14T12:32:00Z</time>
      </trkpt>
      <trkpt lat="51.33826" lon="3.23959">
        <ele>0.14</ele>
        <time>2018-01-14T12:32:16Z</time>
      </trkpt>
      <trkpt lat="51.33817" lon="3.23951">
        <ele>0.14</ele>
        <time>2018-01-14T12:32:22Z</time>
      </trkpt>
      <trkpt lat="51.33804" lon="3.23945">
        <ele>0.14</ele>
        <time>2018-01-14T12:32:35Z</time>
      </trkpt>
      <trkpt lat="51.33781" lon="3.23952">
        <ele>0.14</ele>
        <time>2018-01-14T12:32:51Z</time>
      </trkpt>
      <trkpt lat="51.33761" lon="3.23951">
        <ele>0.14</ele>
        <time>2018-01-14T12:33:09Z</time>
      </trkpt>
      <trkpt lat="51.33732" lon="3.23957">
        <ele>0.14</ele>
        <time>2018-01-14T12:33:26Z</time>
      </trkpt>
      <trkpt lat="51.33712" lon="3.23957">
        <ele>0.14</ele>
        <time>2018-01-14T12:33:40Z</time>
      </trkpt>
      <trkpt lat="51.33704" lon="3.2398">
        <ele>0.14</ele>
        <time>2018-01-14T12:33:55Z</time>
      </trkpt>
      <trkpt lat="51.33694" lon="3.23981">
        <ele>0.14</ele>
        <time>2018-01-14T12:34:08Z</time>
      </trkpt>
      <trkpt lat="51.33686" lon="3.23969">
        <ele>0.14</ele>
        <time>2018-01-14T12:34:22Z</time>
      </trkpt>
      <trkpt lat="51.33668" lon="3.23956">
        <ele>0.14</ele>
        <time>2018-01-14T12:34:37Z</time>
      </trkpt>
      <trkpt lat="51.33666" lon="3.23956">
        <ele>0.14</ele>
        <time>2018-01-14T12:34:39Z</time>
      </trkpt>
      <trkpt lat="51.33663" lon="3.23954">
        <ele>0.62</ele>
        <time>2018-01-14T12:34:41Z</time>
      </trkpt>
      <trkpt lat="51.33642" lon="3.23945">
        <ele>0.62</ele>
        <time>2018-01-14T12:34:58Z</time>
      </trkpt>
      <trkpt lat="51.33617" lon="3.23938">
        <ele>0.62</ele>
        <time>2018-01-14T12:35:15Z</time>
      </trkpt>
      <trkpt lat="51.33593" lon="3.23939">
        <ele>0.62</ele>
        <time>2018-01-14T12:35:33Z</time>
      </trkpt>
      <trkpt lat="51.33572" lon="3.23945">
        <ele>0.62</ele>
        <time>2018-01-14T12:35:51Z</time>
      </trkpt>
      <trkpt lat="51.3355" lon="3.23947">
        <ele>1.1</ele>
        <time>2018-01-14T12:36:07Z</time>
      </trkpt>
      <trkpt lat="51.33537" lon="3.23946">
        <ele>1.1</ele>
        <time>2018-01-14T12:36:24Z</time>
      </trkpt>
      <trkpt lat="51.33517" lon="3.23935">
        <ele>1.58</ele>
        <time>2018-01-14T12:36:38Z</time>
      </trkpt>
      <trkpt lat="51.33501" lon="3.23933">
        <ele>2.06</ele>
        <time>2018-01-14T12:36:48Z</time>
      </trkpt>
      <trkpt lat="51.33489" lon="3.2393">
        <ele>2.06</ele>
        <time>2018-01-14T12:36:57Z</time>
      </trkpt>
      <trkpt lat="51.33478" lon="3.2393">
        <ele>2.54</ele>
        <time>2018-01-14T12:37:10Z</time>
      </trkpt>
      <trkpt lat="51.33473" lon="3.23934">
        <ele>2.54</ele>
        <time>2018-01-14T12:37:15Z</time>
      </trkpt>
      <trkpt lat="51.33456" lon="3.23953">
        <ele>2.54</ele>
        <time>2018-01-14T12:37:30Z</time>
      </trkpt>
      <trkpt lat="51.33451" lon="3.23967">
        <ele>3.02</ele>
        <time>2018-01-14T12:37:38Z</time>
      </trkpt>
      <trkpt lat="51.3343" lon="3.23967">
        <ele>3.02</ele>
        <time>2018-01-14T12:37:54Z</time>
      </trkpt>
      <trkpt lat="51.33418" lon="3.23957">
        <ele>3.02</ele>
        <time>2018-01-14T12:38:09Z</time>
      </trkpt>
      <trkpt lat="51.33416" lon="3.23952">
        <ele>3.02</ele>
        <time>2018-01-14T12:38:14Z</time>
      </trkpt>
      <trkpt lat="51.33414" lon="3.23936">
        <ele>3.5</ele>
        <time>2018-01-14T12:38:32Z</time>
      </trkpt>
      <trkpt lat="51.33411" lon="3.23939">
        <ele>3.5</ele>
        <time>2018-01-14T12:38:52Z</time>
      </trkpt>
      <trkpt lat="51.33415" lon="3.23931">
        <ele>3.98</ele>
        <time>2018-01-14T12:39:15Z</time>
      </trkpt>
      <trkpt lat="51.33409" lon="3.23917">
        <ele>3.98</ele>
        <time>2018-01-14T12:39:23Z</time>
      </trkpt>
      <trkpt lat="51.33402" lon="3.23901">
        <ele>3.98</ele>
        <time>2018-01-14T12:39:39Z</time>
      </trkpt>
      <trkpt lat="51.334" lon="3.23898">
        <ele>3.98</ele>
        <time>2018-01-14T12:40:00Z</time>
      </trkpt>
      <trkpt lat="51.33401" lon="3.23896">
        <ele>3.98</ele>
        <time>2018-01-14T12:40:20Z</time>
      </trkpt>
      <trkpt lat="51.33391" lon="3.2392">
        <ele>3.5</ele>
        <time>2018-01-14T12:47:43Z</time>
      </trkpt>
      <trkpt lat="51.33402" lon="3.23901">
        <ele>3.5</ele>
        <time>2018-01-14T12:48:17Z</time>
      </trkpt>
      <trkpt lat="51.334" lon="3.239">
        <ele>2.54</ele>
        <time>2018-01-14T12:48:45Z</time>
      </trkpt>
      <trkpt lat="51.33385" lon="3.23892">
        <ele>3.02</ele>
        <time>2018-01-14T12:49:13Z</time>
      </trkpt>
      <trkpt lat="51.33391" lon="3.23899">
        <ele>3.02</ele>
        <time>2018-01-14T12:49:40Z</time>
      </trkpt>
      <trkpt lat="51.33403" lon="3.23911">
        <ele>3.5</ele>
        <time>2018-01-14T12:50:05Z</time>
      </trkpt>
      <trkpt lat="51.33399" lon="3.23903">
        <ele>3.5</ele>
        <time>2018-01-14T12:50:30Z</time>
      </trkpt>
      <trkpt lat="51.33391" lon="3.23901">
        <ele>3.98</ele>
        <time>2018-01-14T12:50:43Z</time>
      </trkpt>
    </trkseg>
  </trk>
</gpx>